<?xml version="1.0" encoding="UTF-8" standalone="no" ?>
<gpx xmlns="http://www.topografix.com/GPX/1/1" xmlns:xsi="http://www.w3.org/2001/XMLSchema-instance" xsi:schemaLocation="http://www.topografix.com/GPX/1/1 http://www.topografix.com/GPX/1/1/gpx.xsd" version="1.1" creator="VisuGPX - https://www.visugpx.com">
  <metadata>
    <name>Revel Tourdan</name>
  </metadata>
  <trk>
    <name><![CDATA[2022-11-07 16:45:52]]></name>
    <trkseg>
      <trkpt lat="45.41103" lon="5.01698">
        <ele>464.62</ele>
        <time>2022-11-07T13:38:51Z</time>
      </trkpt>
      <trkpt lat="45.41103" lon="5.01698">
        <ele>464.62</ele>
        <time>2022-11-07T13:38:52Z</time>
      </trkpt>
      <trkpt lat="45.41102" lon="5.01699">
        <ele>467.47</ele>
        <time>2022-11-07T13:38:57Z</time>
      </trkpt>
      <trkpt lat="45.41101" lon="5.01702">
        <ele>468.63</ele>
        <time>2022-11-07T13:38:59Z</time>
      </trkpt>
      <trkpt lat="45.411" lon="5.01708">
        <ele>469.75</ele>
        <time>2022-11-07T13:39:01Z</time>
      </trkpt>
      <trkpt lat="45.411" lon="5.01711">
        <ele>470.07</ele>
        <time>2022-11-07T13:39:02Z</time>
      </trkpt>
      <trkpt lat="45.41101" lon="5.01715">
        <ele>470.34</ele>
        <time>2022-11-07T13:39:03Z</time>
      </trkpt>
      <trkpt lat="45.41101" lon="5.01718">
        <ele>470.57</ele>
        <time>2022-11-07T13:39:04Z</time>
      </trkpt>
      <trkpt lat="45.41104" lon="5.01755">
        <ele>471.69</ele>
        <time>2022-11-07T13:39:13Z</time>
      </trkpt>
      <trkpt lat="45.41108" lon="5.01799">
        <ele>472.55</ele>
        <time>2022-11-07T13:39:23Z</time>
      </trkpt>
      <trkpt lat="45.41112" lon="5.01852">
        <ele>473.88</ele>
        <time>2022-11-07T13:39:34Z</time>
      </trkpt>
      <trkpt lat="45.41118" lon="5.01909">
        <ele>474.26</ele>
        <time>2022-11-07T13:39:43Z</time>
      </trkpt>
      <trkpt lat="45.41129" lon="5.01998">
        <ele>473.01</ele>
        <time>2022-11-07T13:39:54Z</time>
      </trkpt>
      <trkpt lat="45.41137" lon="5.02082">
        <ele>471.68</ele>
        <time>2022-11-07T13:40:04Z</time>
      </trkpt>
      <trkpt lat="45.41145" lon="5.02149">
        <ele>469.96</ele>
        <time>2022-11-07T13:40:14Z</time>
      </trkpt>
      <trkpt lat="45.41154" lon="5.02212">
        <ele>470.36</ele>
        <time>2022-11-07T13:40:24Z</time>
      </trkpt>
      <trkpt lat="45.41163" lon="5.02266">
        <ele>471.05</ele>
        <time>2022-11-07T13:40:33Z</time>
      </trkpt>
      <trkpt lat="45.41168" lon="5.02315">
        <ele>471.76</ele>
        <time>2022-11-07T13:40:42Z</time>
      </trkpt>
      <trkpt lat="45.41166" lon="5.02328">
        <ele>471.47</ele>
        <time>2022-11-07T13:40:47Z</time>
      </trkpt>
      <trkpt lat="45.41164" lon="5.02327">
        <ele>470.71</ele>
        <time>2022-11-07T13:41:01Z</time>
      </trkpt>
      <trkpt lat="45.41166" lon="5.02329">
        <ele>470.78</ele>
        <time>2022-11-07T13:41:10Z</time>
      </trkpt>
      <trkpt lat="45.4116" lon="5.02336">
        <ele>470.81</ele>
        <time>2022-11-07T13:41:13Z</time>
      </trkpt>
      <trkpt lat="45.41149" lon="5.0236">
        <ele>470.71</ele>
        <time>2022-11-07T13:41:19Z</time>
      </trkpt>
      <trkpt lat="45.41146" lon="5.02365">
        <ele>470.72</ele>
        <time>2022-11-07T13:41:20Z</time>
      </trkpt>
      <trkpt lat="45.41142" lon="5.02369">
        <ele>470.75</ele>
        <time>2022-11-07T13:41:21Z</time>
      </trkpt>
      <trkpt lat="45.41138" lon="5.02371">
        <ele>470.78</ele>
        <time>2022-11-07T13:41:22Z</time>
      </trkpt>
      <trkpt lat="45.41133" lon="5.02372">
        <ele>470.78</ele>
        <time>2022-11-07T13:41:23Z</time>
      </trkpt>
      <trkpt lat="45.41129" lon="5.02373">
        <ele>470.78</ele>
        <time>2022-11-07T13:41:24Z</time>
      </trkpt>
      <trkpt lat="45.41113" lon="5.02377">
        <ele>470.62</ele>
        <time>2022-11-07T13:41:28Z</time>
      </trkpt>
      <trkpt lat="45.41095" lon="5.0238">
        <ele>470.3</ele>
        <time>2022-11-07T13:41:32Z</time>
      </trkpt>
      <trkpt lat="45.4109" lon="5.0238">
        <ele>470.25</ele>
        <time>2022-11-07T13:41:33Z</time>
      </trkpt>
      <trkpt lat="45.41071" lon="5.02381">
        <ele>470.1</ele>
        <time>2022-11-07T13:41:38Z</time>
      </trkpt>
      <trkpt lat="45.41032" lon="5.02385">
        <ele>469.89</ele>
        <time>2022-11-07T13:41:46Z</time>
      </trkpt>
      <trkpt lat="45.40998" lon="5.02388">
        <ele>469.1</ele>
        <time>2022-11-07T13:41:53Z</time>
      </trkpt>
      <trkpt lat="45.40964" lon="5.02392">
        <ele>468</ele>
        <time>2022-11-07T13:42:00Z</time>
      </trkpt>
      <trkpt lat="45.40917" lon="5.02398">
        <ele>466.38</ele>
        <time>2022-11-07T13:42:10Z</time>
      </trkpt>
      <trkpt lat="45.4087" lon="5.02404">
        <ele>464.98</ele>
        <time>2022-11-07T13:42:20Z</time>
      </trkpt>
      <trkpt lat="45.40849" lon="5.02413">
        <ele>463.71</ele>
        <time>2022-11-07T13:42:25Z</time>
      </trkpt>
      <trkpt lat="45.40833" lon="5.02428">
        <ele>462.61</ele>
        <time>2022-11-07T13:42:29Z</time>
      </trkpt>
      <trkpt lat="45.40788" lon="5.0246">
        <ele>458.91</ele>
        <time>2022-11-07T13:42:38Z</time>
      </trkpt>
      <trkpt lat="45.40747" lon="5.0249">
        <ele>455.91</ele>
        <time>2022-11-07T13:42:46Z</time>
      </trkpt>
      <trkpt lat="45.40743" lon="5.02494">
        <ele>455.58</ele>
        <time>2022-11-07T13:42:47Z</time>
      </trkpt>
      <trkpt lat="45.40722" lon="5.02508">
        <ele>454.22</ele>
        <time>2022-11-07T13:42:52Z</time>
      </trkpt>
      <trkpt lat="45.40702" lon="5.02525">
        <ele>452.73</ele>
        <time>2022-11-07T13:42:57Z</time>
      </trkpt>
      <trkpt lat="45.40683" lon="5.02555">
        <ele>450.47</ele>
        <time>2022-11-07T13:43:03Z</time>
      </trkpt>
      <trkpt lat="45.40673" lon="5.02571">
        <ele>448.73</ele>
        <time>2022-11-07T13:43:06Z</time>
      </trkpt>
      <trkpt lat="45.40666" lon="5.02583">
        <ele>446.57</ele>
        <time>2022-11-07T13:43:08Z</time>
      </trkpt>
      <trkpt lat="45.40659" lon="5.02593">
        <ele>444.99</ele>
        <time>2022-11-07T13:43:10Z</time>
      </trkpt>
      <trkpt lat="45.40644" lon="5.02612">
        <ele>441.57</ele>
        <time>2022-11-07T13:43:14Z</time>
      </trkpt>
      <trkpt lat="45.4063" lon="5.02636">
        <ele>438.64</ele>
        <time>2022-11-07T13:43:18Z</time>
      </trkpt>
      <trkpt lat="45.40615" lon="5.02654">
        <ele>435.38</ele>
        <time>2022-11-07T13:43:22Z</time>
      </trkpt>
      <trkpt lat="45.40587" lon="5.0267">
        <ele>431.88</ele>
        <time>2022-11-07T13:43:29Z</time>
      </trkpt>
      <trkpt lat="45.4057" lon="5.02678">
        <ele>431.35</ele>
        <time>2022-11-07T13:43:34Z</time>
      </trkpt>
      <trkpt lat="45.40548" lon="5.02687">
        <ele>431.26</ele>
        <time>2022-11-07T13:43:40Z</time>
      </trkpt>
      <trkpt lat="45.4053" lon="5.02694">
        <ele>431.53</ele>
        <time>2022-11-07T13:43:45Z</time>
      </trkpt>
      <trkpt lat="45.40508" lon="5.027">
        <ele>431.69</ele>
        <time>2022-11-07T13:43:51Z</time>
      </trkpt>
      <trkpt lat="45.40487" lon="5.02707">
        <ele>431.65</ele>
        <time>2022-11-07T13:43:57Z</time>
      </trkpt>
      <trkpt lat="45.4046" lon="5.02717">
        <ele>431.87</ele>
        <time>2022-11-07T13:44:05Z</time>
      </trkpt>
      <trkpt lat="45.40437" lon="5.02731">
        <ele>431.87</ele>
        <time>2022-11-07T13:44:12Z</time>
      </trkpt>
      <trkpt lat="45.40417" lon="5.02745">
        <ele>432.49</ele>
        <time>2022-11-07T13:44:18Z</time>
      </trkpt>
      <trkpt lat="45.40392" lon="5.02762">
        <ele>433.57</ele>
        <time>2022-11-07T13:44:26Z</time>
      </trkpt>
      <trkpt lat="45.40377" lon="5.02773">
        <ele>434.36</ele>
        <time>2022-11-07T13:44:31Z</time>
      </trkpt>
      <trkpt lat="45.40357" lon="5.02786">
        <ele>435.04</ele>
        <time>2022-11-07T13:44:37Z</time>
      </trkpt>
      <trkpt lat="45.4034" lon="5.028">
        <ele>435.61</ele>
        <time>2022-11-07T13:44:43Z</time>
      </trkpt>
      <trkpt lat="45.40319" lon="5.02821">
        <ele>436.62</ele>
        <time>2022-11-07T13:44:50Z</time>
      </trkpt>
      <trkpt lat="45.40304" lon="5.02828">
        <ele>437</ele>
        <time>2022-11-07T13:44:56Z</time>
      </trkpt>
      <trkpt lat="45.40279" lon="5.02836">
        <ele>436.22</ele>
        <time>2022-11-07T13:45:03Z</time>
      </trkpt>
      <trkpt lat="45.4025" lon="5.02855">
        <ele>435.45</ele>
        <time>2022-11-07T13:45:10Z</time>
      </trkpt>
      <trkpt lat="45.40226" lon="5.02868">
        <ele>433.97</ele>
        <time>2022-11-07T13:45:16Z</time>
      </trkpt>
      <trkpt lat="45.40217" lon="5.02871">
        <ele>431.46</ele>
        <time>2022-11-07T13:45:23Z</time>
      </trkpt>
      <trkpt lat="45.40216" lon="5.02871">
        <ele>431.28</ele>
        <time>2022-11-07T13:45:24Z</time>
      </trkpt>
      <trkpt lat="45.40214" lon="5.02872">
        <ele>431.11</ele>
        <time>2022-11-07T13:45:25Z</time>
      </trkpt>
      <trkpt lat="45.40213" lon="5.02875">
        <ele>430.98</ele>
        <time>2022-11-07T13:45:26Z</time>
      </trkpt>
      <trkpt lat="45.40212" lon="5.02879">
        <ele>430.87</ele>
        <time>2022-11-07T13:45:27Z</time>
      </trkpt>
      <trkpt lat="45.40212" lon="5.02884">
        <ele>430.79</ele>
        <time>2022-11-07T13:45:28Z</time>
      </trkpt>
      <trkpt lat="45.40212" lon="5.02889">
        <ele>430.74</ele>
        <time>2022-11-07T13:45:29Z</time>
      </trkpt>
      <trkpt lat="45.40216" lon="5.02944">
        <ele>431.87</ele>
        <time>2022-11-07T13:45:39Z</time>
      </trkpt>
      <trkpt lat="45.40218" lon="5.02993">
        <ele>432.89</ele>
        <time>2022-11-07T13:45:48Z</time>
      </trkpt>
      <trkpt lat="45.40224" lon="5.03043">
        <ele>431.67</ele>
        <time>2022-11-07T13:45:57Z</time>
      </trkpt>
      <trkpt lat="45.40223" lon="5.03048">
        <ele>430.46</ele>
        <time>2022-11-07T13:46:01Z</time>
      </trkpt>
      <trkpt lat="45.40223" lon="5.03052">
        <ele>429.5</ele>
        <time>2022-11-07T13:46:10Z</time>
      </trkpt>
      <trkpt lat="45.40224" lon="5.03054">
        <ele>429.47</ele>
        <time>2022-11-07T13:46:11Z</time>
      </trkpt>
      <trkpt lat="45.40225" lon="5.03056">
        <ele>429.47</ele>
        <time>2022-11-07T13:46:12Z</time>
      </trkpt>
      <trkpt lat="45.40226" lon="5.03057">
        <ele>429.49</ele>
        <time>2022-11-07T13:46:13Z</time>
      </trkpt>
      <trkpt lat="45.40227" lon="5.03059">
        <ele>429.51</ele>
        <time>2022-11-07T13:46:14Z</time>
      </trkpt>
      <trkpt lat="45.40228" lon="5.03061">
        <ele>429.55</ele>
        <time>2022-11-07T13:46:15Z</time>
      </trkpt>
      <trkpt lat="45.40233" lon="5.03074">
        <ele>429.82</ele>
        <time>2022-11-07T13:46:23Z</time>
      </trkpt>
      <trkpt lat="45.40235" lon="5.03076">
        <ele>429.83</ele>
        <time>2022-11-07T13:46:24Z</time>
      </trkpt>
      <trkpt lat="45.40236" lon="5.03077">
        <ele>429.85</ele>
        <time>2022-11-07T13:46:25Z</time>
      </trkpt>
      <trkpt lat="45.40238" lon="5.03076">
        <ele>429.86</ele>
        <time>2022-11-07T13:46:26Z</time>
      </trkpt>
      <trkpt lat="45.40238" lon="5.03074">
        <ele>429.87</ele>
        <time>2022-11-07T13:46:27Z</time>
      </trkpt>
      <trkpt lat="45.40237" lon="5.03071">
        <ele>429.87</ele>
        <time>2022-11-07T13:46:28Z</time>
      </trkpt>
      <trkpt lat="45.40236" lon="5.03069">
        <ele>429.87</ele>
        <time>2022-11-07T13:46:29Z</time>
      </trkpt>
      <trkpt lat="45.40235" lon="5.03066">
        <ele>429.87</ele>
        <time>2022-11-07T13:46:30Z</time>
      </trkpt>
      <trkpt lat="45.40224" lon="5.03056">
        <ele>429.7</ele>
        <time>2022-11-07T13:46:37Z</time>
      </trkpt>
      <trkpt lat="45.40209" lon="5.03065">
        <ele>429.28</ele>
        <time>2022-11-07T13:46:42Z</time>
      </trkpt>
      <trkpt lat="45.40204" lon="5.03068">
        <ele>429.24</ele>
        <time>2022-11-07T13:46:43Z</time>
      </trkpt>
      <trkpt lat="45.40199" lon="5.0307">
        <ele>429.27</ele>
        <time>2022-11-07T13:46:44Z</time>
      </trkpt>
      <trkpt lat="45.40155" lon="5.03079">
        <ele>428.32</ele>
        <time>2022-11-07T13:46:51Z</time>
      </trkpt>
      <trkpt lat="45.40149" lon="5.03078">
        <ele>427.99</ele>
        <time>2022-11-07T13:46:52Z</time>
      </trkpt>
      <trkpt lat="45.40125" lon="5.03068">
        <ele>426.03</ele>
        <time>2022-11-07T13:46:57Z</time>
      </trkpt>
      <trkpt lat="45.40121" lon="5.03064">
        <ele>425.66</ele>
        <time>2022-11-07T13:46:58Z</time>
      </trkpt>
      <trkpt lat="45.40118" lon="5.0306">
        <ele>425.32</ele>
        <time>2022-11-07T13:46:59Z</time>
      </trkpt>
      <trkpt lat="45.40116" lon="5.03055">
        <ele>424.62</ele>
        <time>2022-11-07T13:47:00Z</time>
      </trkpt>
      <trkpt lat="45.40102" lon="5.03041">
        <ele>423.13</ele>
        <time>2022-11-07T13:47:05Z</time>
      </trkpt>
      <trkpt lat="45.40099" lon="5.03042">
        <ele>422.74</ele>
        <time>2022-11-07T13:47:06Z</time>
      </trkpt>
      <trkpt lat="45.40095" lon="5.03045">
        <ele>422.32</ele>
        <time>2022-11-07T13:47:07Z</time>
      </trkpt>
      <trkpt lat="45.4008" lon="5.03056">
        <ele>419.15</ele>
        <time>2022-11-07T13:47:13Z</time>
      </trkpt>
      <trkpt lat="45.40062" lon="5.03065">
        <ele>416.22</ele>
        <time>2022-11-07T13:47:21Z</time>
      </trkpt>
      <trkpt lat="45.40048" lon="5.03069">
        <ele>413.13</ele>
        <time>2022-11-07T13:47:27Z</time>
      </trkpt>
      <trkpt lat="45.40035" lon="5.0307">
        <ele>409.71</ele>
        <time>2022-11-07T13:47:33Z</time>
      </trkpt>
      <trkpt lat="45.40023" lon="5.03075">
        <ele>406.32</ele>
        <time>2022-11-07T13:47:38Z</time>
      </trkpt>
      <trkpt lat="45.40007" lon="5.03084">
        <ele>402.88</ele>
        <time>2022-11-07T13:47:45Z</time>
      </trkpt>
      <trkpt lat="45.39989" lon="5.0309">
        <ele>399.92</ele>
        <time>2022-11-07T13:47:51Z</time>
      </trkpt>
      <trkpt lat="45.3997" lon="5.03099">
        <ele>397.14</ele>
        <time>2022-11-07T13:47:57Z</time>
      </trkpt>
      <trkpt lat="45.39957" lon="5.03106">
        <ele>394.94</ele>
        <time>2022-11-07T13:48:02Z</time>
      </trkpt>
      <trkpt lat="45.39955" lon="5.03107">
        <ele>394.03</ele>
        <time>2022-11-07T13:48:03Z</time>
      </trkpt>
      <trkpt lat="45.39951" lon="5.03111">
        <ele>392.76</ele>
        <time>2022-11-07T13:48:07Z</time>
      </trkpt>
      <trkpt lat="45.39948" lon="5.03116">
        <ele>391.93</ele>
        <time>2022-11-07T13:48:12Z</time>
      </trkpt>
      <trkpt lat="45.3993" lon="5.03127">
        <ele>391.2</ele>
        <time>2022-11-07T13:48:19Z</time>
      </trkpt>
      <trkpt lat="45.39928" lon="5.03129">
        <ele>391.02</ele>
        <time>2022-11-07T13:48:20Z</time>
      </trkpt>
      <trkpt lat="45.39922" lon="5.03139">
        <ele>390.39</ele>
        <time>2022-11-07T13:48:24Z</time>
      </trkpt>
      <trkpt lat="45.39922" lon="5.03144">
        <ele>390.11</ele>
        <time>2022-11-07T13:48:25Z</time>
      </trkpt>
      <trkpt lat="45.39922" lon="5.03148">
        <ele>390.11</ele>
        <time>2022-11-07T13:48:26Z</time>
      </trkpt>
      <trkpt lat="45.39926" lon="5.03178">
        <ele>389.34</ele>
        <time>2022-11-07T13:48:31Z</time>
      </trkpt>
      <trkpt lat="45.39933" lon="5.0324">
        <ele>388.32</ele>
        <time>2022-11-07T13:48:40Z</time>
      </trkpt>
      <trkpt lat="45.39943" lon="5.03317">
        <ele>387.51</ele>
        <time>2022-11-07T13:48:50Z</time>
      </trkpt>
      <trkpt lat="45.39954" lon="5.03398">
        <ele>386.03</ele>
        <time>2022-11-07T13:48:59Z</time>
      </trkpt>
      <trkpt lat="45.39958" lon="5.0343">
        <ele>384.72</ele>
        <time>2022-11-07T13:49:03Z</time>
      </trkpt>
      <trkpt lat="45.39956" lon="5.03436">
        <ele>384.22</ele>
        <time>2022-11-07T13:49:04Z</time>
      </trkpt>
      <trkpt lat="45.39952" lon="5.0344">
        <ele>383.74</ele>
        <time>2022-11-07T13:49:05Z</time>
      </trkpt>
      <trkpt lat="45.39948" lon="5.03441">
        <ele>383.3</ele>
        <time>2022-11-07T13:49:06Z</time>
      </trkpt>
      <trkpt lat="45.39943" lon="5.0344">
        <ele>382.89</ele>
        <time>2022-11-07T13:49:07Z</time>
      </trkpt>
      <trkpt lat="45.39937" lon="5.03438">
        <ele>382.49</ele>
        <time>2022-11-07T13:49:08Z</time>
      </trkpt>
      <trkpt lat="45.39898" lon="5.03425">
        <ele>380.36</ele>
        <time>2022-11-07T13:49:15Z</time>
      </trkpt>
      <trkpt lat="45.39842" lon="5.03408">
        <ele>379.05</ele>
        <time>2022-11-07T13:49:25Z</time>
      </trkpt>
      <trkpt lat="45.39789" lon="5.03383">
        <ele>377.78</ele>
        <time>2022-11-07T13:49:35Z</time>
      </trkpt>
      <trkpt lat="45.39762" lon="5.03375">
        <ele>376.98</ele>
        <time>2022-11-07T13:49:40Z</time>
      </trkpt>
      <trkpt lat="45.39757" lon="5.03375">
        <ele>376.82</ele>
        <time>2022-11-07T13:49:41Z</time>
      </trkpt>
      <trkpt lat="45.39752" lon="5.03375">
        <ele>376.44</ele>
        <time>2022-11-07T13:49:42Z</time>
      </trkpt>
      <trkpt lat="45.39747" lon="5.03377">
        <ele>376.24</ele>
        <time>2022-11-07T13:49:43Z</time>
      </trkpt>
      <trkpt lat="45.39742" lon="5.0338">
        <ele>376.04</ele>
        <time>2022-11-07T13:49:44Z</time>
      </trkpt>
      <trkpt lat="45.39738" lon="5.03383">
        <ele>375.84</ele>
        <time>2022-11-07T13:49:45Z</time>
      </trkpt>
      <trkpt lat="45.39734" lon="5.03388">
        <ele>375.63</ele>
        <time>2022-11-07T13:49:46Z</time>
      </trkpt>
      <trkpt lat="45.39731" lon="5.03392">
        <ele>375.44</ele>
        <time>2022-11-07T13:49:47Z</time>
      </trkpt>
      <trkpt lat="45.39728" lon="5.03398">
        <ele>375.26</ele>
        <time>2022-11-07T13:49:48Z</time>
      </trkpt>
      <trkpt lat="45.39726" lon="5.03404">
        <ele>375.06</ele>
        <time>2022-11-07T13:49:49Z</time>
      </trkpt>
      <trkpt lat="45.39726" lon="5.03411">
        <ele>374.87</ele>
        <time>2022-11-07T13:49:50Z</time>
      </trkpt>
      <trkpt lat="45.39726" lon="5.03418">
        <ele>374.68</ele>
        <time>2022-11-07T13:49:51Z</time>
      </trkpt>
      <trkpt lat="45.39726" lon="5.03426">
        <ele>374.46</ele>
        <time>2022-11-07T13:49:52Z</time>
      </trkpt>
      <trkpt lat="45.39727" lon="5.03433">
        <ele>374.22</ele>
        <time>2022-11-07T13:49:53Z</time>
      </trkpt>
      <trkpt lat="45.39733" lon="5.035">
        <ele>372.21</ele>
        <time>2022-11-07T13:50:03Z</time>
      </trkpt>
      <trkpt lat="45.39733" lon="5.03541">
        <ele>371.83</ele>
        <time>2022-11-07T13:50:10Z</time>
      </trkpt>
      <trkpt lat="45.39731" lon="5.03554">
        <ele>371.81</ele>
        <time>2022-11-07T13:50:12Z</time>
      </trkpt>
      <trkpt lat="45.39729" lon="5.03559">
        <ele>371.78</ele>
        <time>2022-11-07T13:50:13Z</time>
      </trkpt>
      <trkpt lat="45.39726" lon="5.03564">
        <ele>371.74</ele>
        <time>2022-11-07T13:50:14Z</time>
      </trkpt>
      <trkpt lat="45.39724" lon="5.03569">
        <ele>371.73</ele>
        <time>2022-11-07T13:50:15Z</time>
      </trkpt>
      <trkpt lat="45.39721" lon="5.03573">
        <ele>371.74</ele>
        <time>2022-11-07T13:50:16Z</time>
      </trkpt>
      <trkpt lat="45.39718" lon="5.03576">
        <ele>371.74</ele>
        <time>2022-11-07T13:50:17Z</time>
      </trkpt>
      <trkpt lat="45.39715" lon="5.0358">
        <ele>371.73</ele>
        <time>2022-11-07T13:50:18Z</time>
      </trkpt>
      <trkpt lat="45.39697" lon="5.036">
        <ele>371.85</ele>
        <time>2022-11-07T13:50:25Z</time>
      </trkpt>
      <trkpt lat="45.39677" lon="5.03625">
        <ele>374.18</ele>
        <time>2022-11-07T13:50:34Z</time>
      </trkpt>
      <trkpt lat="45.39666" lon="5.03659">
        <ele>376.54</ele>
        <time>2022-11-07T13:50:43Z</time>
      </trkpt>
      <trkpt lat="45.39656" lon="5.03688">
        <ele>378.35</ele>
        <time>2022-11-07T13:50:50Z</time>
      </trkpt>
      <trkpt lat="45.39651" lon="5.037">
        <ele>378.8</ele>
        <time>2022-11-07T13:50:53Z</time>
      </trkpt>
      <trkpt lat="45.39646" lon="5.03736">
        <ele>380.3</ele>
        <time>2022-11-07T13:51:01Z</time>
      </trkpt>
      <trkpt lat="45.39651" lon="5.03786">
        <ele>382.19</ele>
        <time>2022-11-07T13:51:12Z</time>
      </trkpt>
      <trkpt lat="45.39661" lon="5.03821">
        <ele>384.56</ele>
        <time>2022-11-07T13:51:22Z</time>
      </trkpt>
      <trkpt lat="45.39662" lon="5.03835">
        <ele>385.7</ele>
        <time>2022-11-07T13:51:30Z</time>
      </trkpt>
      <trkpt lat="45.39661" lon="5.03837">
        <ele>386.16</ele>
        <time>2022-11-07T13:51:41Z</time>
      </trkpt>
      <trkpt lat="45.3966" lon="5.03841">
        <ele>386.2</ele>
        <time>2022-11-07T13:51:43Z</time>
      </trkpt>
      <trkpt lat="45.3966" lon="5.03844">
        <ele>386.2</ele>
        <time>2022-11-07T13:51:44Z</time>
      </trkpt>
      <trkpt lat="45.39657" lon="5.03872">
        <ele>385.59</ele>
        <time>2022-11-07T13:51:51Z</time>
      </trkpt>
      <trkpt lat="45.39652" lon="5.03917">
        <ele>385.66</ele>
        <time>2022-11-07T13:51:57Z</time>
      </trkpt>
      <trkpt lat="45.39634" lon="5.03996">
        <ele>384.9</ele>
        <time>2022-11-07T13:52:06Z</time>
      </trkpt>
      <trkpt lat="45.39619" lon="5.04063">
        <ele>383.06</ele>
        <time>2022-11-07T13:52:12Z</time>
      </trkpt>
      <trkpt lat="45.39599" lon="5.04169">
        <ele>379.83</ele>
        <time>2022-11-07T13:52:21Z</time>
      </trkpt>
      <trkpt lat="45.39589" lon="5.04208">
        <ele>377.83</ele>
        <time>2022-11-07T13:52:26Z</time>
      </trkpt>
      <trkpt lat="45.39582" lon="5.0422">
        <ele>375.56</ele>
        <time>2022-11-07T13:52:31Z</time>
      </trkpt>
      <trkpt lat="45.39582" lon="5.0422">
        <ele>373.26</ele>
        <time>2022-11-07T13:52:41Z</time>
      </trkpt>
      <trkpt lat="45.39581" lon="5.04218">
        <ele>372.78</ele>
        <time>2022-11-07T13:52:54Z</time>
      </trkpt>
      <trkpt lat="45.39579" lon="5.04218">
        <ele>372.74</ele>
        <time>2022-11-07T13:52:55Z</time>
      </trkpt>
      <trkpt lat="45.39576" lon="5.04218">
        <ele>372.71</ele>
        <time>2022-11-07T13:52:56Z</time>
      </trkpt>
      <trkpt lat="45.39573" lon="5.04219">
        <ele>372.69</ele>
        <time>2022-11-07T13:52:57Z</time>
      </trkpt>
      <trkpt lat="45.3957" lon="5.0422">
        <ele>372.67</ele>
        <time>2022-11-07T13:52:58Z</time>
      </trkpt>
      <trkpt lat="45.39559" lon="5.04221">
        <ele>372.66</ele>
        <time>2022-11-07T13:53:01Z</time>
      </trkpt>
      <trkpt lat="45.39536" lon="5.04214">
        <ele>371.3</ele>
        <time>2022-11-07T13:53:06Z</time>
      </trkpt>
      <trkpt lat="45.39493" lon="5.04208">
        <ele>368.37</ele>
        <time>2022-11-07T13:53:13Z</time>
      </trkpt>
      <trkpt lat="45.39452" lon="5.04201">
        <ele>365.94</ele>
        <time>2022-11-07T13:53:19Z</time>
      </trkpt>
      <trkpt lat="45.3944" lon="5.04198">
        <ele>364.86</ele>
        <time>2022-11-07T13:53:21Z</time>
      </trkpt>
      <trkpt lat="45.39434" lon="5.04198">
        <ele>364.29</ele>
        <time>2022-11-07T13:53:22Z</time>
      </trkpt>
      <trkpt lat="45.39428" lon="5.04199">
        <ele>363.74</ele>
        <time>2022-11-07T13:53:23Z</time>
      </trkpt>
      <trkpt lat="45.39418" lon="5.042">
        <ele>361.91</ele>
        <time>2022-11-07T13:53:25Z</time>
      </trkpt>
      <trkpt lat="45.39401" lon="5.04207">
        <ele>359.7</ele>
        <time>2022-11-07T13:53:30Z</time>
      </trkpt>
      <trkpt lat="45.39398" lon="5.04208">
        <ele>358.65</ele>
        <time>2022-11-07T13:53:34Z</time>
      </trkpt>
      <trkpt lat="45.39396" lon="5.04207">
        <ele>357.76</ele>
        <time>2022-11-07T13:53:52Z</time>
      </trkpt>
      <trkpt lat="45.39395" lon="5.04206">
        <ele>357.81</ele>
        <time>2022-11-07T13:53:53Z</time>
      </trkpt>
      <trkpt lat="45.39394" lon="5.04204">
        <ele>357.86</ele>
        <time>2022-11-07T13:53:54Z</time>
      </trkpt>
      <trkpt lat="45.39392" lon="5.04201">
        <ele>357.92</ele>
        <time>2022-11-07T13:53:55Z</time>
      </trkpt>
      <trkpt lat="45.39391" lon="5.04198">
        <ele>358.03</ele>
        <time>2022-11-07T13:53:56Z</time>
      </trkpt>
      <trkpt lat="45.3939" lon="5.04194">
        <ele>358.13</ele>
        <time>2022-11-07T13:53:57Z</time>
      </trkpt>
      <trkpt lat="45.39385" lon="5.04184">
        <ele>358.2</ele>
        <time>2022-11-07T13:54:00Z</time>
      </trkpt>
      <trkpt lat="45.39382" lon="5.04183">
        <ele>358.09</ele>
        <time>2022-11-07T13:54:01Z</time>
      </trkpt>
      <trkpt lat="45.3938" lon="5.04182">
        <ele>357.96</ele>
        <time>2022-11-07T13:54:02Z</time>
      </trkpt>
      <trkpt lat="45.39376" lon="5.04182">
        <ele>357.85</ele>
        <time>2022-11-07T13:54:03Z</time>
      </trkpt>
      <trkpt lat="45.39372" lon="5.04182">
        <ele>357.76</ele>
        <time>2022-11-07T13:54:04Z</time>
      </trkpt>
      <trkpt lat="45.39343" lon="5.04179">
        <ele>357.3</ele>
        <time>2022-11-07T13:54:10Z</time>
      </trkpt>
      <trkpt lat="45.39321" lon="5.04173">
        <ele>354.73</ele>
        <time>2022-11-07T13:54:14Z</time>
      </trkpt>
      <trkpt lat="45.39284" lon="5.04168">
        <ele>351.86</ele>
        <time>2022-11-07T13:54:21Z</time>
      </trkpt>
      <trkpt lat="45.39252" lon="5.04158">
        <ele>350.14</ele>
        <time>2022-11-07T13:54:28Z</time>
      </trkpt>
      <trkpt lat="45.39233" lon="5.04147">
        <ele>349.45</ele>
        <time>2022-11-07T13:54:34Z</time>
      </trkpt>
      <trkpt lat="45.39224" lon="5.04142">
        <ele>348.82</ele>
        <time>2022-11-07T13:54:40Z</time>
      </trkpt>
      <trkpt lat="45.3922" lon="5.04143">
        <ele>348.56</ele>
        <time>2022-11-07T13:54:52Z</time>
      </trkpt>
      <trkpt lat="45.39218" lon="5.04142">
        <ele>348.65</ele>
        <time>2022-11-07T13:54:54Z</time>
      </trkpt>
      <trkpt lat="45.39213" lon="5.04142">
        <ele>348.84</ele>
        <time>2022-11-07T13:55:03Z</time>
      </trkpt>
      <trkpt lat="45.39214" lon="5.04146">
        <ele>348.98</ele>
        <time>2022-11-07T13:55:21Z</time>
      </trkpt>
      <trkpt lat="45.39213" lon="5.04146">
        <ele>348.88</ele>
        <time>2022-11-07T13:55:35Z</time>
      </trkpt>
      <trkpt lat="45.39212" lon="5.04146">
        <ele>349.11</ele>
        <time>2022-11-07T13:55:51Z</time>
      </trkpt>
      <trkpt lat="45.39206" lon="5.04147">
        <ele>349.12</ele>
        <time>2022-11-07T13:56:00Z</time>
      </trkpt>
      <trkpt lat="45.39201" lon="5.04148">
        <ele>347.96</ele>
        <time>2022-11-07T13:56:12Z</time>
      </trkpt>
      <trkpt lat="45.39196" lon="5.04148">
        <ele>347.55</ele>
        <time>2022-11-07T13:56:22Z</time>
      </trkpt>
      <trkpt lat="45.39191" lon="5.04148">
        <ele>347.59</ele>
        <time>2022-11-07T13:56:26Z</time>
      </trkpt>
      <trkpt lat="45.39181" lon="5.04147">
        <ele>348.36</ele>
        <time>2022-11-07T13:56:34Z</time>
      </trkpt>
      <trkpt lat="45.39164" lon="5.04145">
        <ele>349.32</ele>
        <time>2022-11-07T13:56:44Z</time>
      </trkpt>
      <trkpt lat="45.39145" lon="5.04142">
        <ele>350.04</ele>
        <time>2022-11-07T13:56:54Z</time>
      </trkpt>
      <trkpt lat="45.39132" lon="5.0413">
        <ele>350.15</ele>
        <time>2022-11-07T13:57:02Z</time>
      </trkpt>
      <trkpt lat="45.39118" lon="5.04122">
        <ele>350.99</ele>
        <time>2022-11-07T13:57:11Z</time>
      </trkpt>
      <trkpt lat="45.39113" lon="5.04111">
        <ele>352.28</ele>
        <time>2022-11-07T13:57:18Z</time>
      </trkpt>
      <trkpt lat="45.39109" lon="5.041">
        <ele>354</ele>
        <time>2022-11-07T13:57:24Z</time>
      </trkpt>
      <trkpt lat="45.39099" lon="5.04084">
        <ele>356.82</ele>
        <time>2022-11-07T13:57:31Z</time>
      </trkpt>
      <trkpt lat="45.39096" lon="5.04082">
        <ele>357.57</ele>
        <time>2022-11-07T13:57:33Z</time>
      </trkpt>
      <trkpt lat="45.39095" lon="5.04082">
        <ele>357.96</ele>
        <time>2022-11-07T13:57:34Z</time>
      </trkpt>
      <trkpt lat="45.39093" lon="5.04082">
        <ele>358.35</ele>
        <time>2022-11-07T13:57:35Z</time>
      </trkpt>
      <trkpt lat="45.39084" lon="5.0408">
        <ele>360.35</ele>
        <time>2022-11-07T13:57:40Z</time>
      </trkpt>
      <trkpt lat="45.39082" lon="5.0408">
        <ele>360.78</ele>
        <time>2022-11-07T13:57:41Z</time>
      </trkpt>
      <trkpt lat="45.39073" lon="5.0408">
        <ele>363.43</ele>
        <time>2022-11-07T13:57:47Z</time>
      </trkpt>
      <trkpt lat="45.39069" lon="5.0408">
        <ele>364.3</ele>
        <time>2022-11-07T13:57:49Z</time>
      </trkpt>
      <trkpt lat="45.39066" lon="5.04081">
        <ele>364.78</ele>
        <time>2022-11-07T13:57:50Z</time>
      </trkpt>
      <trkpt lat="45.39064" lon="5.04082">
        <ele>365.28</ele>
        <time>2022-11-07T13:57:51Z</time>
      </trkpt>
      <trkpt lat="45.39061" lon="5.04084">
        <ele>365.75</ele>
        <time>2022-11-07T13:57:52Z</time>
      </trkpt>
      <trkpt lat="45.39059" lon="5.04086">
        <ele>366.19</ele>
        <time>2022-11-07T13:57:53Z</time>
      </trkpt>
      <trkpt lat="45.39057" lon="5.04087">
        <ele>366.61</ele>
        <time>2022-11-07T13:57:54Z</time>
      </trkpt>
      <trkpt lat="45.39055" lon="5.04088">
        <ele>367.04</ele>
        <time>2022-11-07T13:57:55Z</time>
      </trkpt>
      <trkpt lat="45.39052" lon="5.04089">
        <ele>367.94</ele>
        <time>2022-11-07T13:57:56Z</time>
      </trkpt>
      <trkpt lat="45.39051" lon="5.0409">
        <ele>368.39</ele>
        <time>2022-11-07T13:57:57Z</time>
      </trkpt>
      <trkpt lat="45.39049" lon="5.0409">
        <ele>368.85</ele>
        <time>2022-11-07T13:57:58Z</time>
      </trkpt>
      <trkpt lat="45.39047" lon="5.04091">
        <ele>369.3</ele>
        <time>2022-11-07T13:57:59Z</time>
      </trkpt>
      <trkpt lat="45.39044" lon="5.04092">
        <ele>369.72</ele>
        <time>2022-11-07T13:58:00Z</time>
      </trkpt>
      <trkpt lat="45.39042" lon="5.04093">
        <ele>370.09</ele>
        <time>2022-11-07T13:58:01Z</time>
      </trkpt>
      <trkpt lat="45.3904" lon="5.04094">
        <ele>370.43</ele>
        <time>2022-11-07T13:58:02Z</time>
      </trkpt>
      <trkpt lat="45.39038" lon="5.04095">
        <ele>370.79</ele>
        <time>2022-11-07T13:58:03Z</time>
      </trkpt>
      <trkpt lat="45.39037" lon="5.04096">
        <ele>371.18</ele>
        <time>2022-11-07T13:58:04Z</time>
      </trkpt>
      <trkpt lat="45.39034" lon="5.04096">
        <ele>371.6</ele>
        <time>2022-11-07T13:58:05Z</time>
      </trkpt>
      <trkpt lat="45.39033" lon="5.04097">
        <ele>372.02</ele>
        <time>2022-11-07T13:58:06Z</time>
      </trkpt>
      <trkpt lat="45.39022" lon="5.041">
        <ele>374.09</ele>
        <time>2022-11-07T13:58:11Z</time>
      </trkpt>
      <trkpt lat="45.3902" lon="5.041">
        <ele>374.54</ele>
        <time>2022-11-07T13:58:12Z</time>
      </trkpt>
      <trkpt lat="45.39018" lon="5.041">
        <ele>374.99</ele>
        <time>2022-11-07T13:58:13Z</time>
      </trkpt>
      <trkpt lat="45.39016" lon="5.04101">
        <ele>375.41</ele>
        <time>2022-11-07T13:58:14Z</time>
      </trkpt>
      <trkpt lat="45.39014" lon="5.04102">
        <ele>375.81</ele>
        <time>2022-11-07T13:58:15Z</time>
      </trkpt>
      <trkpt lat="45.39012" lon="5.04102">
        <ele>376.21</ele>
        <time>2022-11-07T13:58:16Z</time>
      </trkpt>
      <trkpt lat="45.38996" lon="5.04106">
        <ele>379.41</ele>
        <time>2022-11-07T13:58:23Z</time>
      </trkpt>
      <trkpt lat="45.3898" lon="5.0411">
        <ele>382.2</ele>
        <time>2022-11-07T13:58:30Z</time>
      </trkpt>
      <trkpt lat="45.38966" lon="5.04117">
        <ele>384.56</ele>
        <time>2022-11-07T13:58:36Z</time>
      </trkpt>
      <trkpt lat="45.3895" lon="5.04116">
        <ele>387.92</ele>
        <time>2022-11-07T13:58:43Z</time>
      </trkpt>
      <trkpt lat="45.38939" lon="5.04107">
        <ele>389.96</ele>
        <time>2022-11-07T13:58:50Z</time>
      </trkpt>
      <trkpt lat="45.38929" lon="5.04099">
        <ele>391.59</ele>
        <time>2022-11-07T13:58:57Z</time>
      </trkpt>
      <trkpt lat="45.38922" lon="5.04098">
        <ele>392.51</ele>
        <time>2022-11-07T13:59:06Z</time>
      </trkpt>
      <trkpt lat="45.38918" lon="5.04096">
        <ele>392.82</ele>
        <time>2022-11-07T13:59:28Z</time>
      </trkpt>
      <trkpt lat="45.38915" lon="5.04098">
        <ele>392.83</ele>
        <time>2022-11-07T13:59:45Z</time>
      </trkpt>
      <trkpt lat="45.38913" lon="5.04098">
        <ele>392.78</ele>
        <time>2022-11-07T13:59:56Z</time>
      </trkpt>
      <trkpt lat="45.38912" lon="5.04096">
        <ele>392.71</ele>
        <time>2022-11-07T14:00:12Z</time>
      </trkpt>
      <trkpt lat="45.3891" lon="5.04093">
        <ele>392.58</ele>
        <time>2022-11-07T14:00:44Z</time>
      </trkpt>
      <trkpt lat="45.38909" lon="5.04094">
        <ele>392.62</ele>
        <time>2022-11-07T14:01:07Z</time>
      </trkpt>
      <trkpt lat="45.38909" lon="5.04092">
        <ele>392.57</ele>
        <time>2022-11-07T14:01:37Z</time>
      </trkpt>
      <trkpt lat="45.38909" lon="5.04094">
        <ele>392.82</ele>
        <time>2022-11-07T14:02:04Z</time>
      </trkpt>
      <trkpt lat="45.38909" lon="5.04096">
        <ele>392.85</ele>
        <time>2022-11-07T14:02:27Z</time>
      </trkpt>
      <trkpt lat="45.38909" lon="5.04095">
        <ele>392.97</ele>
        <time>2022-11-07T14:02:57Z</time>
      </trkpt>
      <trkpt lat="45.38908" lon="5.04099">
        <ele>393.04</ele>
        <time>2022-11-07T14:03:00Z</time>
      </trkpt>
      <trkpt lat="45.38907" lon="5.04104">
        <ele>393.12</ele>
        <time>2022-11-07T14:03:02Z</time>
      </trkpt>
      <trkpt lat="45.38898" lon="5.04118">
        <ele>393.7</ele>
        <time>2022-11-07T14:03:10Z</time>
      </trkpt>
      <trkpt lat="45.38894" lon="5.04123">
        <ele>394.04</ele>
        <time>2022-11-07T14:03:13Z</time>
      </trkpt>
      <trkpt lat="45.38877" lon="5.0413">
        <ele>395.28</ele>
        <time>2022-11-07T14:03:21Z</time>
      </trkpt>
      <trkpt lat="45.38861" lon="5.04137">
        <ele>396.26</ele>
        <time>2022-11-07T14:03:28Z</time>
      </trkpt>
      <trkpt lat="45.38847" lon="5.04145">
        <ele>397.01</ele>
        <time>2022-11-07T14:03:35Z</time>
      </trkpt>
      <trkpt lat="45.3883" lon="5.04153">
        <ele>397.93</ele>
        <time>2022-11-07T14:03:42Z</time>
      </trkpt>
      <trkpt lat="45.38818" lon="5.04159">
        <ele>399.53</ele>
        <time>2022-11-07T14:03:48Z</time>
      </trkpt>
      <trkpt lat="45.38802" lon="5.04165">
        <ele>400.97</ele>
        <time>2022-11-07T14:03:55Z</time>
      </trkpt>
      <trkpt lat="45.38786" lon="5.04172">
        <ele>402.88</ele>
        <time>2022-11-07T14:04:02Z</time>
      </trkpt>
      <trkpt lat="45.38782" lon="5.04175">
        <ele>403.48</ele>
        <time>2022-11-07T14:04:04Z</time>
      </trkpt>
      <trkpt lat="45.38762" lon="5.04182">
        <ele>406.73</ele>
        <time>2022-11-07T14:04:13Z</time>
      </trkpt>
      <trkpt lat="45.38747" lon="5.04181">
        <ele>409.48</ele>
        <time>2022-11-07T14:04:21Z</time>
      </trkpt>
      <trkpt lat="45.38727" lon="5.04176">
        <ele>411.43</ele>
        <time>2022-11-07T14:04:29Z</time>
      </trkpt>
      <trkpt lat="45.38709" lon="5.04174">
        <ele>413.64</ele>
        <time>2022-11-07T14:04:36Z</time>
      </trkpt>
      <trkpt lat="45.38691" lon="5.04188">
        <ele>416.2</ele>
        <time>2022-11-07T14:04:44Z</time>
      </trkpt>
      <trkpt lat="45.3867" lon="5.04205">
        <ele>419.05</ele>
        <time>2022-11-07T14:04:55Z</time>
      </trkpt>
      <trkpt lat="45.38649" lon="5.04212">
        <ele>422.33</ele>
        <time>2022-11-07T14:05:04Z</time>
      </trkpt>
      <trkpt lat="45.38632" lon="5.04219">
        <ele>425.66</ele>
        <time>2022-11-07T14:05:12Z</time>
      </trkpt>
      <trkpt lat="45.38616" lon="5.04222">
        <ele>428.67</ele>
        <time>2022-11-07T14:05:19Z</time>
      </trkpt>
      <trkpt lat="45.38594" lon="5.04224">
        <ele>431.86</ele>
        <time>2022-11-07T14:05:29Z</time>
      </trkpt>
      <trkpt lat="45.38587" lon="5.04225">
        <ele>432.77</ele>
        <time>2022-11-07T14:05:36Z</time>
      </trkpt>
      <trkpt lat="45.38586" lon="5.04225">
        <ele>433.33</ele>
        <time>2022-11-07T14:05:44Z</time>
      </trkpt>
      <trkpt lat="45.38582" lon="5.04224">
        <ele>433.45</ele>
        <time>2022-11-07T14:05:47Z</time>
      </trkpt>
      <trkpt lat="45.38577" lon="5.04226">
        <ele>433.73</ele>
        <time>2022-11-07T14:05:53Z</time>
      </trkpt>
      <trkpt lat="45.38577" lon="5.04225">
        <ele>434.1</ele>
        <time>2022-11-07T14:06:24Z</time>
      </trkpt>
      <trkpt lat="45.38579" lon="5.04225">
        <ele>433.71</ele>
        <time>2022-11-07T14:06:40Z</time>
      </trkpt>
      <trkpt lat="45.38585" lon="5.04225">
        <ele>433.5</ele>
        <time>2022-11-07T14:06:46Z</time>
      </trkpt>
      <trkpt lat="45.38585" lon="5.04207">
        <ele>433.11</ele>
        <time>2022-11-07T14:06:55Z</time>
      </trkpt>
      <trkpt lat="45.38585" lon="5.04204">
        <ele>433.18</ele>
        <time>2022-11-07T14:06:59Z</time>
      </trkpt>
      <trkpt lat="45.38584" lon="5.04197">
        <ele>433.23</ele>
        <time>2022-11-07T14:07:02Z</time>
      </trkpt>
      <trkpt lat="45.38581" lon="5.04169">
        <ele>434.03</ele>
        <time>2022-11-07T14:07:12Z</time>
      </trkpt>
      <trkpt lat="45.38583" lon="5.0414">
        <ele>434.47</ele>
        <time>2022-11-07T14:07:21Z</time>
      </trkpt>
      <trkpt lat="45.38581" lon="5.04109">
        <ele>434.22</ele>
        <time>2022-11-07T14:07:29Z</time>
      </trkpt>
      <trkpt lat="45.38574" lon="5.0409">
        <ele>433.83</ele>
        <time>2022-11-07T14:07:37Z</time>
      </trkpt>
      <trkpt lat="45.38564" lon="5.04071">
        <ele>433.42</ele>
        <time>2022-11-07T14:07:46Z</time>
      </trkpt>
      <trkpt lat="45.38556" lon="5.04048">
        <ele>433</ele>
        <time>2022-11-07T14:07:56Z</time>
      </trkpt>
      <trkpt lat="45.3855" lon="5.04032">
        <ele>432.43</ele>
        <time>2022-11-07T14:08:03Z</time>
      </trkpt>
      <trkpt lat="45.38544" lon="5.04013">
        <ele>431.55</ele>
        <time>2022-11-07T14:08:11Z</time>
      </trkpt>
      <trkpt lat="45.38539" lon="5.03985">
        <ele>430.7</ele>
        <time>2022-11-07T14:08:18Z</time>
      </trkpt>
      <trkpt lat="45.38537" lon="5.03957">
        <ele>429.41</ele>
        <time>2022-11-07T14:08:25Z</time>
      </trkpt>
      <trkpt lat="45.38537" lon="5.03954">
        <ele>428.34</ele>
        <time>2022-11-07T14:08:31Z</time>
      </trkpt>
      <trkpt lat="45.38537" lon="5.03952">
        <ele>428.23</ele>
        <time>2022-11-07T14:08:33Z</time>
      </trkpt>
      <trkpt lat="45.38538" lon="5.0395">
        <ele>428.19</ele>
        <time>2022-11-07T14:08:34Z</time>
      </trkpt>
      <trkpt lat="45.38539" lon="5.03945">
        <ele>428.13</ele>
        <time>2022-11-07T14:08:36Z</time>
      </trkpt>
      <trkpt lat="45.38539" lon="5.03941">
        <ele>428.11</ele>
        <time>2022-11-07T14:08:37Z</time>
      </trkpt>
      <trkpt lat="45.38541" lon="5.03908">
        <ele>427.74</ele>
        <time>2022-11-07T14:08:45Z</time>
      </trkpt>
      <trkpt lat="45.3854" lon="5.03896">
        <ele>426.75</ele>
        <time>2022-11-07T14:08:50Z</time>
      </trkpt>
      <trkpt lat="45.38539" lon="5.03897">
        <ele>425.22</ele>
        <time>2022-11-07T14:09:05Z</time>
      </trkpt>
      <trkpt lat="45.38537" lon="5.03893">
        <ele>425.2</ele>
        <time>2022-11-07T14:09:15Z</time>
      </trkpt>
      <trkpt lat="45.38536" lon="5.03891">
        <ele>425.2</ele>
        <time>2022-11-07T14:09:16Z</time>
      </trkpt>
      <trkpt lat="45.38534" lon="5.03888">
        <ele>425.2</ele>
        <time>2022-11-07T14:09:17Z</time>
      </trkpt>
      <trkpt lat="45.38532" lon="5.03885">
        <ele>425.2</ele>
        <time>2022-11-07T14:09:18Z</time>
      </trkpt>
      <trkpt lat="45.3853" lon="5.03881">
        <ele>425.19</ele>
        <time>2022-11-07T14:09:19Z</time>
      </trkpt>
      <trkpt lat="45.38521" lon="5.03869">
        <ele>425.1</ele>
        <time>2022-11-07T14:09:22Z</time>
      </trkpt>
      <trkpt lat="45.38518" lon="5.03865">
        <ele>425.04</ele>
        <time>2022-11-07T14:09:23Z</time>
      </trkpt>
      <trkpt lat="45.38514" lon="5.03863">
        <ele>424.95</ele>
        <time>2022-11-07T14:09:24Z</time>
      </trkpt>
      <trkpt lat="45.3851" lon="5.03861">
        <ele>424.85</ele>
        <time>2022-11-07T14:09:25Z</time>
      </trkpt>
      <trkpt lat="45.38505" lon="5.03861">
        <ele>424.73</ele>
        <time>2022-11-07T14:09:26Z</time>
      </trkpt>
      <trkpt lat="45.385" lon="5.03862">
        <ele>424.61</ele>
        <time>2022-11-07T14:09:27Z</time>
      </trkpt>
      <trkpt lat="45.38496" lon="5.03864">
        <ele>424.5</ele>
        <time>2022-11-07T14:09:28Z</time>
      </trkpt>
      <trkpt lat="45.38491" lon="5.03867">
        <ele>424.41</ele>
        <time>2022-11-07T14:09:29Z</time>
      </trkpt>
      <trkpt lat="45.3848" lon="5.03873">
        <ele>424.25</ele>
        <time>2022-11-07T14:09:31Z</time>
      </trkpt>
      <trkpt lat="45.38458" lon="5.03891">
        <ele>423.4</ele>
        <time>2022-11-07T14:09:35Z</time>
      </trkpt>
      <trkpt lat="45.38448" lon="5.03899">
        <ele>422.27</ele>
        <time>2022-11-07T14:09:37Z</time>
      </trkpt>
      <trkpt lat="45.38444" lon="5.03902">
        <ele>421.59</ele>
        <time>2022-11-07T14:09:38Z</time>
      </trkpt>
      <trkpt lat="45.38433" lon="5.03906">
        <ele>419.99</ele>
        <time>2022-11-07T14:09:40Z</time>
      </trkpt>
      <trkpt lat="45.38427" lon="5.03907">
        <ele>419.25</ele>
        <time>2022-11-07T14:09:41Z</time>
      </trkpt>
      <trkpt lat="45.38421" lon="5.03906">
        <ele>418.63</ele>
        <time>2022-11-07T14:09:42Z</time>
      </trkpt>
      <trkpt lat="45.38415" lon="5.03905">
        <ele>417.39</ele>
        <time>2022-11-07T14:09:43Z</time>
      </trkpt>
      <trkpt lat="45.3841" lon="5.03904">
        <ele>417.39</ele>
        <time>2022-11-07T14:09:44Z</time>
      </trkpt>
      <trkpt lat="45.38407" lon="5.03902">
        <ele>415.82</ele>
        <time>2022-11-07T14:09:45Z</time>
      </trkpt>
      <trkpt lat="45.38397" lon="5.03899">
        <ele>412.17</ele>
        <time>2022-11-07T14:09:50Z</time>
      </trkpt>
      <trkpt lat="45.38397" lon="5.03898">
        <ele>409.16</ele>
        <time>2022-11-07T14:09:58Z</time>
      </trkpt>
      <trkpt lat="45.38395" lon="5.03894">
        <ele>408.83</ele>
        <time>2022-11-07T14:10:07Z</time>
      </trkpt>
      <trkpt lat="45.38395" lon="5.03892">
        <ele>408.83</ele>
        <time>2022-11-07T14:10:08Z</time>
      </trkpt>
      <trkpt lat="45.38396" lon="5.03889">
        <ele>408.86</ele>
        <time>2022-11-07T14:10:09Z</time>
      </trkpt>
      <trkpt lat="45.38397" lon="5.03887">
        <ele>408.88</ele>
        <time>2022-11-07T14:10:10Z</time>
      </trkpt>
      <trkpt lat="45.38397" lon="5.03885">
        <ele>408.91</ele>
        <time>2022-11-07T14:10:11Z</time>
      </trkpt>
      <trkpt lat="45.38398" lon="5.03882">
        <ele>408.96</ele>
        <time>2022-11-07T14:10:12Z</time>
      </trkpt>
      <trkpt lat="45.38399" lon="5.0388">
        <ele>409.01</ele>
        <time>2022-11-07T14:10:13Z</time>
      </trkpt>
      <trkpt lat="45.38405" lon="5.03864">
        <ele>409.44</ele>
        <time>2022-11-07T14:10:21Z</time>
      </trkpt>
      <trkpt lat="45.38406" lon="5.03863">
        <ele>409.52</ele>
        <time>2022-11-07T14:10:22Z</time>
      </trkpt>
      <trkpt lat="45.38407" lon="5.03863">
        <ele>409.58</ele>
        <time>2022-11-07T14:10:23Z</time>
      </trkpt>
      <trkpt lat="45.38408" lon="5.03863">
        <ele>409.65</ele>
        <time>2022-11-07T14:10:24Z</time>
      </trkpt>
      <trkpt lat="45.38411" lon="5.03863">
        <ele>409.83</ele>
        <time>2022-11-07T14:10:26Z</time>
      </trkpt>
      <trkpt lat="45.38413" lon="5.03863">
        <ele>409.93</ele>
        <time>2022-11-07T14:10:27Z</time>
      </trkpt>
      <trkpt lat="45.38423" lon="5.03865">
        <ele>410.45</ele>
        <time>2022-11-07T14:10:33Z</time>
      </trkpt>
      <trkpt lat="45.38427" lon="5.03864">
        <ele>410.91</ele>
        <time>2022-11-07T14:10:38Z</time>
      </trkpt>
      <trkpt lat="45.38428" lon="5.03864">
        <ele>410.99</ele>
        <time>2022-11-07T14:10:39Z</time>
      </trkpt>
      <trkpt lat="45.3843" lon="5.03865">
        <ele>411.12</ele>
        <time>2022-11-07T14:10:40Z</time>
      </trkpt>
      <trkpt lat="45.38432" lon="5.03865">
        <ele>411.3</ele>
        <time>2022-11-07T14:10:41Z</time>
      </trkpt>
      <trkpt lat="45.38434" lon="5.03866">
        <ele>411.51</ele>
        <time>2022-11-07T14:10:42Z</time>
      </trkpt>
      <trkpt lat="45.38435" lon="5.03866">
        <ele>411.7</ele>
        <time>2022-11-07T14:10:43Z</time>
      </trkpt>
      <trkpt lat="45.38437" lon="5.03864">
        <ele>411.88</ele>
        <time>2022-11-07T14:10:44Z</time>
      </trkpt>
      <trkpt lat="45.38439" lon="5.03863">
        <ele>412.06</ele>
        <time>2022-11-07T14:10:45Z</time>
      </trkpt>
      <trkpt lat="45.3844" lon="5.03862">
        <ele>412.24</ele>
        <time>2022-11-07T14:10:46Z</time>
      </trkpt>
      <trkpt lat="45.38444" lon="5.03859">
        <ele>413.55</ele>
        <time>2022-11-07T14:10:50Z</time>
      </trkpt>
      <trkpt lat="45.38445" lon="5.03858">
        <ele>413.91</ele>
        <time>2022-11-07T14:10:51Z</time>
      </trkpt>
      <trkpt lat="45.38446" lon="5.03856">
        <ele>414.25</ele>
        <time>2022-11-07T14:10:52Z</time>
      </trkpt>
      <trkpt lat="45.38448" lon="5.03854">
        <ele>414.53</ele>
        <time>2022-11-07T14:10:53Z</time>
      </trkpt>
      <trkpt lat="45.38449" lon="5.03851">
        <ele>414.76</ele>
        <time>2022-11-07T14:10:54Z</time>
      </trkpt>
      <trkpt lat="45.3845" lon="5.03848">
        <ele>414.97</ele>
        <time>2022-11-07T14:10:55Z</time>
      </trkpt>
      <trkpt lat="45.38451" lon="5.03845">
        <ele>415.16</ele>
        <time>2022-11-07T14:10:56Z</time>
      </trkpt>
      <trkpt lat="45.38452" lon="5.03842">
        <ele>415.34</ele>
        <time>2022-11-07T14:10:57Z</time>
      </trkpt>
      <trkpt lat="45.38454" lon="5.0384">
        <ele>415.5</ele>
        <time>2022-11-07T14:10:58Z</time>
      </trkpt>
      <trkpt lat="45.38464" lon="5.03816">
        <ele>416.71</ele>
        <time>2022-11-07T14:11:05Z</time>
      </trkpt>
      <trkpt lat="45.38473" lon="5.03785">
        <ele>416.8</ele>
        <time>2022-11-07T14:11:15Z</time>
      </trkpt>
      <trkpt lat="45.38465" lon="5.03753">
        <ele>416.64</ele>
        <time>2022-11-07T14:11:23Z</time>
      </trkpt>
      <trkpt lat="45.38455" lon="5.03711">
        <ele>416.23</ele>
        <time>2022-11-07T14:11:32Z</time>
      </trkpt>
      <trkpt lat="45.38451" lon="5.03686">
        <ele>415.62</ele>
        <time>2022-11-07T14:11:38Z</time>
      </trkpt>
      <trkpt lat="45.38451" lon="5.03676">
        <ele>415.59</ele>
        <time>2022-11-07T14:11:41Z</time>
      </trkpt>
      <trkpt lat="45.38452" lon="5.03675">
        <ele>415.61</ele>
        <time>2022-11-07T14:11:42Z</time>
      </trkpt>
      <trkpt lat="45.38454" lon="5.03674">
        <ele>415.65</ele>
        <time>2022-11-07T14:11:43Z</time>
      </trkpt>
      <trkpt lat="45.38467" lon="5.03664">
        <ele>415.98</ele>
        <time>2022-11-07T14:11:50Z</time>
      </trkpt>
      <trkpt lat="45.38474" lon="5.03653">
        <ele>415.54</ele>
        <time>2022-11-07T14:11:57Z</time>
      </trkpt>
      <trkpt lat="45.38474" lon="5.03651">
        <ele>415.43</ele>
        <time>2022-11-07T14:11:58Z</time>
      </trkpt>
      <trkpt lat="45.38475" lon="5.03639">
        <ele>414.12</ele>
        <time>2022-11-07T14:12:06Z</time>
      </trkpt>
      <trkpt lat="45.38472" lon="5.03638">
        <ele>413.86</ele>
        <time>2022-11-07T14:12:08Z</time>
      </trkpt>
      <trkpt lat="45.3847" lon="5.03638">
        <ele>413.65</ele>
        <time>2022-11-07T14:12:09Z</time>
      </trkpt>
      <trkpt lat="45.38468" lon="5.03638">
        <ele>413.65</ele>
        <time>2022-11-07T14:12:10Z</time>
      </trkpt>
      <trkpt lat="45.38457" lon="5.0364">
        <ele>413.2</ele>
        <time>2022-11-07T14:12:16Z</time>
      </trkpt>
      <trkpt lat="45.38456" lon="5.03641">
        <ele>413.13</ele>
        <time>2022-11-07T14:12:17Z</time>
      </trkpt>
      <trkpt lat="45.38455" lon="5.03642">
        <ele>413.06</ele>
        <time>2022-11-07T14:12:18Z</time>
      </trkpt>
      <trkpt lat="45.38454" lon="5.03644">
        <ele>412.99</ele>
        <time>2022-11-07T14:12:19Z</time>
      </trkpt>
      <trkpt lat="45.38453" lon="5.03646">
        <ele>412.92</ele>
        <time>2022-11-07T14:12:20Z</time>
      </trkpt>
      <trkpt lat="45.38452" lon="5.03649">
        <ele>412.86</ele>
        <time>2022-11-07T14:12:21Z</time>
      </trkpt>
      <trkpt lat="45.38449" lon="5.03661">
        <ele>412.6</ele>
        <time>2022-11-07T14:12:27Z</time>
      </trkpt>
      <trkpt lat="45.38444" lon="5.03658">
        <ele>411.82</ele>
        <time>2022-11-07T14:12:36Z</time>
      </trkpt>
      <trkpt lat="45.38438" lon="5.03656">
        <ele>411.95</ele>
        <time>2022-11-07T14:12:49Z</time>
      </trkpt>
      <trkpt lat="45.38431" lon="5.03657">
        <ele>411.63</ele>
        <time>2022-11-07T14:12:55Z</time>
      </trkpt>
      <trkpt lat="45.3843" lon="5.03656">
        <ele>411.45</ele>
        <time>2022-11-07T14:12:56Z</time>
      </trkpt>
      <trkpt lat="45.38428" lon="5.03655">
        <ele>411.06</ele>
        <time>2022-11-07T14:12:58Z</time>
      </trkpt>
      <trkpt lat="45.38427" lon="5.03653">
        <ele>410.83</ele>
        <time>2022-11-07T14:12:59Z</time>
      </trkpt>
      <trkpt lat="45.38426" lon="5.03651">
        <ele>410.41</ele>
        <time>2022-11-07T14:13:00Z</time>
      </trkpt>
      <trkpt lat="45.38426" lon="5.03647">
        <ele>410.22</ele>
        <time>2022-11-07T14:13:01Z</time>
      </trkpt>
      <trkpt lat="45.38425" lon="5.03644">
        <ele>410.05</ele>
        <time>2022-11-07T14:13:02Z</time>
      </trkpt>
      <trkpt lat="45.38424" lon="5.03635">
        <ele>408.95</ele>
        <time>2022-11-07T14:13:07Z</time>
      </trkpt>
      <trkpt lat="45.38423" lon="5.03634">
        <ele>408.73</ele>
        <time>2022-11-07T14:13:08Z</time>
      </trkpt>
      <trkpt lat="45.3842" lon="5.03634">
        <ele>408.54</ele>
        <time>2022-11-07T14:13:09Z</time>
      </trkpt>
      <trkpt lat="45.38418" lon="5.03635">
        <ele>408.35</ele>
        <time>2022-11-07T14:13:10Z</time>
      </trkpt>
      <trkpt lat="45.38416" lon="5.03636">
        <ele>408.17</ele>
        <time>2022-11-07T14:13:11Z</time>
      </trkpt>
      <trkpt lat="45.38402" lon="5.03626">
        <ele>407.01</ele>
        <time>2022-11-07T14:13:16Z</time>
      </trkpt>
      <trkpt lat="45.38401" lon="5.03623">
        <ele>406.78</ele>
        <time>2022-11-07T14:13:17Z</time>
      </trkpt>
      <trkpt lat="45.384" lon="5.0362">
        <ele>406.57</ele>
        <time>2022-11-07T14:13:18Z</time>
      </trkpt>
      <trkpt lat="45.384" lon="5.03616">
        <ele>406.38</ele>
        <time>2022-11-07T14:13:19Z</time>
      </trkpt>
      <trkpt lat="45.38399" lon="5.03613">
        <ele>406.22</ele>
        <time>2022-11-07T14:13:20Z</time>
      </trkpt>
      <trkpt lat="45.38399" lon="5.03593">
        <ele>405.39</ele>
        <time>2022-11-07T14:13:28Z</time>
      </trkpt>
      <trkpt lat="45.38404" lon="5.03569">
        <ele>405.55</ele>
        <time>2022-11-07T14:13:37Z</time>
      </trkpt>
      <trkpt lat="45.38413" lon="5.03538">
        <ele>406.31</ele>
        <time>2022-11-07T14:13:48Z</time>
      </trkpt>
      <trkpt lat="45.38416" lon="5.03527">
        <ele>406.67</ele>
        <time>2022-11-07T14:13:56Z</time>
      </trkpt>
      <trkpt lat="45.38416" lon="5.03529">
        <ele>406.69</ele>
        <time>2022-11-07T14:14:16Z</time>
      </trkpt>
      <trkpt lat="45.38415" lon="5.03526">
        <ele>406.78</ele>
        <time>2022-11-07T14:14:35Z</time>
      </trkpt>
      <trkpt lat="45.38418" lon="5.03517">
        <ele>407.22</ele>
        <time>2022-11-07T14:14:46Z</time>
      </trkpt>
      <trkpt lat="45.38418" lon="5.03494">
        <ele>407.49</ele>
        <time>2022-11-07T14:14:53Z</time>
      </trkpt>
      <trkpt lat="45.38416" lon="5.03466">
        <ele>407.73</ele>
        <time>2022-11-07T14:15:01Z</time>
      </trkpt>
      <trkpt lat="45.38414" lon="5.03431">
        <ele>407.86</ele>
        <time>2022-11-07T14:15:09Z</time>
      </trkpt>
      <trkpt lat="45.38408" lon="5.03394">
        <ele>407.46</ele>
        <time>2022-11-07T14:15:19Z</time>
      </trkpt>
      <trkpt lat="45.38403" lon="5.03361">
        <ele>407.1</ele>
        <time>2022-11-07T14:15:27Z</time>
      </trkpt>
      <trkpt lat="45.38395" lon="5.03329">
        <ele>406.09</ele>
        <time>2022-11-07T14:15:34Z</time>
      </trkpt>
      <trkpt lat="45.38395" lon="5.0331">
        <ele>404.78</ele>
        <time>2022-11-07T14:15:40Z</time>
      </trkpt>
      <trkpt lat="45.38395" lon="5.03306">
        <ele>403.74</ele>
        <time>2022-11-07T14:15:47Z</time>
      </trkpt>
      <trkpt lat="45.38391" lon="5.03306">
        <ele>403.33</ele>
        <time>2022-11-07T14:16:10Z</time>
      </trkpt>
      <trkpt lat="45.38391" lon="5.03309">
        <ele>403.55</ele>
        <time>2022-11-07T14:16:16Z</time>
      </trkpt>
      <trkpt lat="45.38391" lon="5.03314">
        <ele>403.6</ele>
        <time>2022-11-07T14:16:18Z</time>
      </trkpt>
      <trkpt lat="45.38392" lon="5.03317">
        <ele>403.63</ele>
        <time>2022-11-07T14:16:19Z</time>
      </trkpt>
      <trkpt lat="45.38393" lon="5.0332">
        <ele>403.69</ele>
        <time>2022-11-07T14:16:20Z</time>
      </trkpt>
      <trkpt lat="45.38398" lon="5.03347">
        <ele>404.88</ele>
        <time>2022-11-07T14:16:29Z</time>
      </trkpt>
      <trkpt lat="45.38402" lon="5.0338">
        <ele>406.49</ele>
        <time>2022-11-07T14:16:39Z</time>
      </trkpt>
      <trkpt lat="45.38407" lon="5.0341">
        <ele>407.45</ele>
        <time>2022-11-07T14:16:47Z</time>
      </trkpt>
      <trkpt lat="45.3841" lon="5.03444">
        <ele>407.82</ele>
        <time>2022-11-07T14:16:56Z</time>
      </trkpt>
      <trkpt lat="45.38411" lon="5.03471">
        <ele>408.03</ele>
        <time>2022-11-07T14:17:04Z</time>
      </trkpt>
      <trkpt lat="45.38412" lon="5.0349">
        <ele>408.11</ele>
        <time>2022-11-07T14:17:11Z</time>
      </trkpt>
      <trkpt lat="45.38412" lon="5.03504">
        <ele>407.93</ele>
        <time>2022-11-07T14:17:19Z</time>
      </trkpt>
      <trkpt lat="45.38411" lon="5.03505">
        <ele>408.03</ele>
        <time>2022-11-07T14:17:29Z</time>
      </trkpt>
      <trkpt lat="45.38409" lon="5.03507">
        <ele>407.96</ele>
        <time>2022-11-07T14:17:36Z</time>
      </trkpt>
      <trkpt lat="45.38409" lon="5.03502">
        <ele>408.01</ele>
        <time>2022-11-07T14:17:41Z</time>
      </trkpt>
      <trkpt lat="45.3841" lon="5.035">
        <ele>408.03</ele>
        <time>2022-11-07T14:17:42Z</time>
      </trkpt>
      <trkpt lat="45.38411" lon="5.03493">
        <ele>408.06</ele>
        <time>2022-11-07T14:17:44Z</time>
      </trkpt>
      <trkpt lat="45.38411" lon="5.03489">
        <ele>408.09</ele>
        <time>2022-11-07T14:17:45Z</time>
      </trkpt>
      <trkpt lat="45.3841" lon="5.03485">
        <ele>408.12</ele>
        <time>2022-11-07T14:17:46Z</time>
      </trkpt>
      <trkpt lat="45.3841" lon="5.03481">
        <ele>408.16</ele>
        <time>2022-11-07T14:17:47Z</time>
      </trkpt>
      <trkpt lat="45.3841" lon="5.03476">
        <ele>408.2</ele>
        <time>2022-11-07T14:17:48Z</time>
      </trkpt>
      <trkpt lat="45.3841" lon="5.03472">
        <ele>408.25</ele>
        <time>2022-11-07T14:17:49Z</time>
      </trkpt>
      <trkpt lat="45.3841" lon="5.03468">
        <ele>408.31</ele>
        <time>2022-11-07T14:17:50Z</time>
      </trkpt>
      <trkpt lat="45.38409" lon="5.0343">
        <ele>408.58</ele>
        <time>2022-11-07T14:17:58Z</time>
      </trkpt>
      <trkpt lat="45.38406" lon="5.03409">
        <ele>408.51</ele>
        <time>2022-11-07T14:18:03Z</time>
      </trkpt>
      <trkpt lat="45.38404" lon="5.03394">
        <ele>408.45</ele>
        <time>2022-11-07T14:18:07Z</time>
      </trkpt>
      <trkpt lat="45.38398" lon="5.03349">
        <ele>408.04</ele>
        <time>2022-11-07T14:18:16Z</time>
      </trkpt>
      <trkpt lat="45.38394" lon="5.03322">
        <ele>407.08</ele>
        <time>2022-11-07T14:18:22Z</time>
      </trkpt>
      <trkpt lat="45.38387" lon="5.03287">
        <ele>405.35</ele>
        <time>2022-11-07T14:18:29Z</time>
      </trkpt>
      <trkpt lat="45.38371" lon="5.03231">
        <ele>402.14</ele>
        <time>2022-11-07T14:18:37Z</time>
      </trkpt>
      <trkpt lat="45.38364" lon="5.03207">
        <ele>399.73</ele>
        <time>2022-11-07T14:18:40Z</time>
      </trkpt>
      <trkpt lat="45.38359" lon="5.03199">
        <ele>398.89</ele>
        <time>2022-11-07T14:18:41Z</time>
      </trkpt>
      <trkpt lat="45.38354" lon="5.03192">
        <ele>398.17</ele>
        <time>2022-11-07T14:18:42Z</time>
      </trkpt>
      <trkpt lat="45.38329" lon="5.03167">
        <ele>395.44</ele>
        <time>2022-11-07T14:18:46Z</time>
      </trkpt>
      <trkpt lat="45.38303" lon="5.03143">
        <ele>392.01</ele>
        <time>2022-11-07T14:18:50Z</time>
      </trkpt>
      <trkpt lat="45.38278" lon="5.03119">
        <ele>388.93</ele>
        <time>2022-11-07T14:18:55Z</time>
      </trkpt>
      <trkpt lat="45.38274" lon="5.03114">
        <ele>388.18</ele>
        <time>2022-11-07T14:18:56Z</time>
      </trkpt>
      <trkpt lat="45.38267" lon="5.03106">
        <ele>386.92</ele>
        <time>2022-11-07T14:18:58Z</time>
      </trkpt>
      <trkpt lat="45.38263" lon="5.03102">
        <ele>386.34</ele>
        <time>2022-11-07T14:18:59Z</time>
      </trkpt>
      <trkpt lat="45.38259" lon="5.03099">
        <ele>385.79</ele>
        <time>2022-11-07T14:19:00Z</time>
      </trkpt>
      <trkpt lat="45.38225" lon="5.03089">
        <ele>381.84</ele>
        <time>2022-11-07T14:19:07Z</time>
      </trkpt>
      <trkpt lat="45.38199" lon="5.03084">
        <ele>379.32</ele>
        <time>2022-11-07T14:19:14Z</time>
      </trkpt>
      <trkpt lat="45.38175" lon="5.03076">
        <ele>377.58</ele>
        <time>2022-11-07T14:19:21Z</time>
      </trkpt>
      <trkpt lat="45.3817" lon="5.03085">
        <ele>376.4</ele>
        <time>2022-11-07T14:19:25Z</time>
      </trkpt>
      <trkpt lat="45.3817" lon="5.03089">
        <ele>376.14</ele>
        <time>2022-11-07T14:19:26Z</time>
      </trkpt>
      <trkpt lat="45.3817" lon="5.03092">
        <ele>375.86</ele>
        <time>2022-11-07T14:19:27Z</time>
      </trkpt>
      <trkpt lat="45.3817" lon="5.03095">
        <ele>375.57</ele>
        <time>2022-11-07T14:19:28Z</time>
      </trkpt>
      <trkpt lat="45.3817" lon="5.03098">
        <ele>375.3</ele>
        <time>2022-11-07T14:19:29Z</time>
      </trkpt>
      <trkpt lat="45.38169" lon="5.03101">
        <ele>375.06</ele>
        <time>2022-11-07T14:19:30Z</time>
      </trkpt>
      <trkpt lat="45.38165" lon="5.03101">
        <ele>374.24</ele>
        <time>2022-11-07T14:19:35Z</time>
      </trkpt>
      <trkpt lat="45.38163" lon="5.03101">
        <ele>374.13</ele>
        <time>2022-11-07T14:19:36Z</time>
      </trkpt>
      <trkpt lat="45.38162" lon="5.03101">
        <ele>373.9</ele>
        <time>2022-11-07T14:19:37Z</time>
      </trkpt>
      <trkpt lat="45.38146" lon="5.03101">
        <ele>373.47</ele>
        <time>2022-11-07T14:19:42Z</time>
      </trkpt>
      <trkpt lat="45.38112" lon="5.031">
        <ele>373.31</ele>
        <time>2022-11-07T14:19:46Z</time>
      </trkpt>
      <trkpt lat="45.38064" lon="5.03095">
        <ele>370.23</ele>
        <time>2022-11-07T14:19:51Z</time>
      </trkpt>
      <trkpt lat="45.3804" lon="5.03092">
        <ele>366.02</ele>
        <time>2022-11-07T14:19:54Z</time>
      </trkpt>
      <trkpt lat="45.38021" lon="5.03091">
        <ele>362</ele>
        <time>2022-11-07T14:19:57Z</time>
      </trkpt>
      <trkpt lat="45.38002" lon="5.03087">
        <ele>358.3</ele>
        <time>2022-11-07T14:20:00Z</time>
      </trkpt>
      <trkpt lat="45.37989" lon="5.03081">
        <ele>356.27</ele>
        <time>2022-11-07T14:20:02Z</time>
      </trkpt>
      <trkpt lat="45.37966" lon="5.03073">
        <ele>353.26</ele>
        <time>2022-11-07T14:20:05Z</time>
      </trkpt>
      <trkpt lat="45.37913" lon="5.03068">
        <ele>351.19</ele>
        <time>2022-11-07T14:20:11Z</time>
      </trkpt>
      <trkpt lat="45.37881" lon="5.03065">
        <ele>349.29</ele>
        <time>2022-11-07T14:20:15Z</time>
      </trkpt>
      <trkpt lat="45.3787" lon="5.03064">
        <ele>345.44</ele>
        <time>2022-11-07T14:20:18Z</time>
      </trkpt>
      <trkpt lat="45.37862" lon="5.03063">
        <ele>342.12</ele>
        <time>2022-11-07T14:20:21Z</time>
      </trkpt>
      <trkpt lat="45.37839" lon="5.03064">
        <ele>339</ele>
        <time>2022-11-07T14:20:27Z</time>
      </trkpt>
      <trkpt lat="45.378" lon="5.03065">
        <ele>336.07</ele>
        <time>2022-11-07T14:20:34Z</time>
      </trkpt>
      <trkpt lat="45.37757" lon="5.03066">
        <ele>333.06</ele>
        <time>2022-11-07T14:20:41Z</time>
      </trkpt>
      <trkpt lat="45.37707" lon="5.03078">
        <ele>330.34</ele>
        <time>2022-11-07T14:20:50Z</time>
      </trkpt>
      <trkpt lat="45.37658" lon="5.03088">
        <ele>329.04</ele>
        <time>2022-11-07T14:21:00Z</time>
      </trkpt>
      <trkpt lat="45.37623" lon="5.03094">
        <ele>329.34</ele>
        <time>2022-11-07T14:21:07Z</time>
      </trkpt>
      <trkpt lat="45.37559" lon="5.03099">
        <ele>329.16</ele>
        <time>2022-11-07T14:21:19Z</time>
      </trkpt>
      <trkpt lat="45.37516" lon="5.03096">
        <ele>328.45</ele>
        <time>2022-11-07T14:21:28Z</time>
      </trkpt>
      <trkpt lat="45.37471" lon="5.03094">
        <ele>327.97</ele>
        <time>2022-11-07T14:21:38Z</time>
      </trkpt>
      <trkpt lat="45.37435" lon="5.03092">
        <ele>327.68</ele>
        <time>2022-11-07T14:21:47Z</time>
      </trkpt>
      <trkpt lat="45.37398" lon="5.03099">
        <ele>327.6</ele>
        <time>2022-11-07T14:21:56Z</time>
      </trkpt>
      <trkpt lat="45.37373" lon="5.03112">
        <ele>327.6</ele>
        <time>2022-11-07T14:22:03Z</time>
      </trkpt>
      <trkpt lat="45.37335" lon="5.03143">
        <ele>327.6</ele>
        <time>2022-11-07T14:22:15Z</time>
      </trkpt>
      <trkpt lat="45.37308" lon="5.03162">
        <ele>327.83</ele>
        <time>2022-11-07T14:22:23Z</time>
      </trkpt>
      <trkpt lat="45.3728" lon="5.03177">
        <ele>327.93</ele>
        <time>2022-11-07T14:22:32Z</time>
      </trkpt>
      <trkpt lat="45.37253" lon="5.03191">
        <ele>328.32</ele>
        <time>2022-11-07T14:22:41Z</time>
      </trkpt>
      <trkpt lat="45.37218" lon="5.03207">
        <ele>329.12</ele>
        <time>2022-11-07T14:22:51Z</time>
      </trkpt>
      <trkpt lat="45.372" lon="5.03209">
        <ele>329.03</ele>
        <time>2022-11-07T14:22:57Z</time>
      </trkpt>
      <trkpt lat="45.37187" lon="5.0321">
        <ele>328.74</ele>
        <time>2022-11-07T14:23:04Z</time>
      </trkpt>
      <trkpt lat="45.37184" lon="5.03211">
        <ele>328.64</ele>
        <time>2022-11-07T14:23:11Z</time>
      </trkpt>
      <trkpt lat="45.37184" lon="5.03212">
        <ele>328.65</ele>
        <time>2022-11-07T14:23:12Z</time>
      </trkpt>
      <trkpt lat="45.37186" lon="5.03213">
        <ele>328.66</ele>
        <time>2022-11-07T14:23:13Z</time>
      </trkpt>
      <trkpt lat="45.37188" lon="5.03213">
        <ele>328.67</ele>
        <time>2022-11-07T14:23:14Z</time>
      </trkpt>
      <trkpt lat="45.37189" lon="5.03212">
        <ele>328.69</ele>
        <time>2022-11-07T14:23:15Z</time>
      </trkpt>
      <trkpt lat="45.37191" lon="5.03212">
        <ele>328.71</ele>
        <time>2022-11-07T14:23:16Z</time>
      </trkpt>
      <trkpt lat="45.37193" lon="5.03212">
        <ele>328.71</ele>
        <time>2022-11-07T14:23:17Z</time>
      </trkpt>
      <trkpt lat="45.37194" lon="5.03213">
        <ele>328.71</ele>
        <time>2022-11-07T14:23:18Z</time>
      </trkpt>
      <trkpt lat="45.37194" lon="5.03214">
        <ele>328.72</ele>
        <time>2022-11-07T14:23:19Z</time>
      </trkpt>
      <trkpt lat="45.37195" lon="5.03216">
        <ele>328.72</ele>
        <time>2022-11-07T14:23:20Z</time>
      </trkpt>
      <trkpt lat="45.37195" lon="5.03219">
        <ele>328.76</ele>
        <time>2022-11-07T14:23:21Z</time>
      </trkpt>
      <trkpt lat="45.37195" lon="5.03223">
        <ele>328.81</ele>
        <time>2022-11-07T14:23:22Z</time>
      </trkpt>
      <trkpt lat="45.37195" lon="5.03227">
        <ele>328.86</ele>
        <time>2022-11-07T14:23:23Z</time>
      </trkpt>
      <trkpt lat="45.37195" lon="5.0323">
        <ele>328.91</ele>
        <time>2022-11-07T14:23:24Z</time>
      </trkpt>
      <trkpt lat="45.37195" lon="5.03234">
        <ele>328.95</ele>
        <time>2022-11-07T14:23:25Z</time>
      </trkpt>
      <trkpt lat="45.37192" lon="5.03249">
        <ele>329.13</ele>
        <time>2022-11-07T14:23:31Z</time>
      </trkpt>
      <trkpt lat="45.3719" lon="5.03251">
        <ele>329.16</ele>
        <time>2022-11-07T14:23:32Z</time>
      </trkpt>
      <trkpt lat="45.37188" lon="5.03252">
        <ele>329.2</ele>
        <time>2022-11-07T14:23:33Z</time>
      </trkpt>
      <trkpt lat="45.37185" lon="5.03253">
        <ele>329.23</ele>
        <time>2022-11-07T14:23:34Z</time>
      </trkpt>
      <trkpt lat="45.37183" lon="5.03254">
        <ele>329.26</ele>
        <time>2022-11-07T14:23:35Z</time>
      </trkpt>
      <trkpt lat="45.3718" lon="5.03254">
        <ele>329.28</ele>
        <time>2022-11-07T14:23:36Z</time>
      </trkpt>
      <trkpt lat="45.37178" lon="5.03255">
        <ele>329.28</ele>
        <time>2022-11-07T14:23:37Z</time>
      </trkpt>
      <trkpt lat="45.37177" lon="5.03255">
        <ele>329.28</ele>
        <time>2022-11-07T14:23:38Z</time>
      </trkpt>
      <trkpt lat="45.37175" lon="5.03256">
        <ele>329.24</ele>
        <time>2022-11-07T14:23:39Z</time>
      </trkpt>
      <trkpt lat="45.37173" lon="5.03256">
        <ele>329.2</ele>
        <time>2022-11-07T14:23:40Z</time>
      </trkpt>
      <trkpt lat="45.37162" lon="5.03267">
        <ele>329.05</ele>
        <time>2022-11-07T14:23:46Z</time>
      </trkpt>
      <trkpt lat="45.37159" lon="5.03271">
        <ele>328.87</ele>
        <time>2022-11-07T14:23:51Z</time>
      </trkpt>
      <trkpt lat="45.37159" lon="5.03272">
        <ele>328.84</ele>
        <time>2022-11-07T14:23:52Z</time>
      </trkpt>
      <trkpt lat="45.3716" lon="5.03274">
        <ele>328.81</ele>
        <time>2022-11-07T14:23:53Z</time>
      </trkpt>
      <trkpt lat="45.37162" lon="5.03275">
        <ele>328.78</ele>
        <time>2022-11-07T14:23:54Z</time>
      </trkpt>
      <trkpt lat="45.37164" lon="5.03274">
        <ele>328.79</ele>
        <time>2022-11-07T14:23:55Z</time>
      </trkpt>
      <trkpt lat="45.37165" lon="5.03273">
        <ele>328.81</ele>
        <time>2022-11-07T14:23:56Z</time>
      </trkpt>
      <trkpt lat="45.37168" lon="5.03273">
        <ele>328.74</ele>
        <time>2022-11-07T14:24:02Z</time>
      </trkpt>
      <trkpt lat="45.37169" lon="5.03274">
        <ele>328.62</ele>
        <time>2022-11-07T14:24:11Z</time>
      </trkpt>
      <trkpt lat="45.3717" lon="5.03274">
        <ele>328.62</ele>
        <time>2022-11-07T14:24:18Z</time>
      </trkpt>
      <trkpt lat="45.3717" lon="5.03272">
        <ele>328.67</ele>
        <time>2022-11-07T14:24:19Z</time>
      </trkpt>
      <trkpt lat="45.37167" lon="5.03264">
        <ele>328.84</ele>
        <time>2022-11-07T14:24:21Z</time>
      </trkpt>
      <trkpt lat="45.37166" lon="5.03261">
        <ele>328.92</ele>
        <time>2022-11-07T14:24:22Z</time>
      </trkpt>
      <trkpt lat="45.37157" lon="5.03229">
        <ele>329.48</ele>
        <time>2022-11-07T14:24:29Z</time>
      </trkpt>
      <trkpt lat="45.37143" lon="5.03194">
        <ele>329.49</ele>
        <time>2022-11-07T14:24:36Z</time>
      </trkpt>
      <trkpt lat="45.37125" lon="5.03168">
        <ele>328.91</ele>
        <time>2022-11-07T14:24:43Z</time>
      </trkpt>
      <trkpt lat="45.37103" lon="5.03156">
        <ele>328.48</ele>
        <time>2022-11-07T14:24:50Z</time>
      </trkpt>
      <trkpt lat="45.37098" lon="5.03132">
        <ele>328.46</ele>
        <time>2022-11-07T14:24:55Z</time>
      </trkpt>
      <trkpt lat="45.37095" lon="5.03096">
        <ele>328.71</ele>
        <time>2022-11-07T14:25:02Z</time>
      </trkpt>
      <trkpt lat="45.37092" lon="5.03048">
        <ele>328.44</ele>
        <time>2022-11-07T14:25:11Z</time>
      </trkpt>
      <trkpt lat="45.37089" lon="5.03011">
        <ele>328.22</ele>
        <time>2022-11-07T14:25:18Z</time>
      </trkpt>
      <trkpt lat="45.37077" lon="5.02979">
        <ele>327.69</ele>
        <time>2022-11-07T14:25:25Z</time>
      </trkpt>
      <trkpt lat="45.37053" lon="5.02956">
        <ele>327.65</ele>
        <time>2022-11-07T14:25:33Z</time>
      </trkpt>
      <trkpt lat="45.37014" lon="5.02925">
        <ele>327.72</ele>
        <time>2022-11-07T14:25:43Z</time>
      </trkpt>
      <trkpt lat="45.36981" lon="5.0289">
        <ele>327.39</ele>
        <time>2022-11-07T14:25:52Z</time>
      </trkpt>
      <trkpt lat="45.36976" lon="5.0288">
        <ele>327.32</ele>
        <time>2022-11-07T14:25:54Z</time>
      </trkpt>
      <trkpt lat="45.36958" lon="5.02832">
        <ele>326.96</ele>
        <time>2022-11-07T14:26:03Z</time>
      </trkpt>
      <trkpt lat="45.36951" lon="5.0279">
        <ele>326.28</ele>
        <time>2022-11-07T14:26:11Z</time>
      </trkpt>
      <trkpt lat="45.3695" lon="5.0276">
        <ele>325.39</ele>
        <time>2022-11-07T14:26:19Z</time>
      </trkpt>
      <trkpt lat="45.36949" lon="5.02755">
        <ele>324.84</ele>
        <time>2022-11-07T14:26:24Z</time>
      </trkpt>
      <trkpt lat="45.36948" lon="5.02753">
        <ele>324.77</ele>
        <time>2022-11-07T14:26:25Z</time>
      </trkpt>
      <trkpt lat="45.36948" lon="5.02749">
        <ele>324.72</ele>
        <time>2022-11-07T14:26:26Z</time>
      </trkpt>
      <trkpt lat="45.36947" lon="5.02744">
        <ele>324.72</ele>
        <time>2022-11-07T14:26:27Z</time>
      </trkpt>
      <trkpt lat="45.36946" lon="5.02738">
        <ele>324.8</ele>
        <time>2022-11-07T14:26:28Z</time>
      </trkpt>
      <trkpt lat="45.36945" lon="5.02733">
        <ele>324.95</ele>
        <time>2022-11-07T14:26:29Z</time>
      </trkpt>
      <trkpt lat="45.36944" lon="5.02726">
        <ele>325.14</ele>
        <time>2022-11-07T14:26:30Z</time>
      </trkpt>
      <trkpt lat="45.36942" lon="5.0272">
        <ele>325.36</ele>
        <time>2022-11-07T14:26:31Z</time>
      </trkpt>
      <trkpt lat="45.36939" lon="5.02714">
        <ele>325.55</ele>
        <time>2022-11-07T14:26:32Z</time>
      </trkpt>
      <trkpt lat="45.36936" lon="5.02709">
        <ele>325.73</ele>
        <time>2022-11-07T14:26:33Z</time>
      </trkpt>
      <trkpt lat="45.36932" lon="5.02705">
        <ele>325.87</ele>
        <time>2022-11-07T14:26:34Z</time>
      </trkpt>
      <trkpt lat="45.36928" lon="5.02701">
        <ele>325.98</ele>
        <time>2022-11-07T14:26:35Z</time>
      </trkpt>
      <trkpt lat="45.36924" lon="5.02698">
        <ele>326.07</ele>
        <time>2022-11-07T14:26:36Z</time>
      </trkpt>
      <trkpt lat="45.36904" lon="5.02681">
        <ele>325.96</ele>
        <time>2022-11-07T14:26:41Z</time>
      </trkpt>
      <trkpt lat="45.36901" lon="5.02678">
        <ele>325.84</ele>
        <time>2022-11-07T14:26:42Z</time>
      </trkpt>
      <trkpt lat="45.36899" lon="5.02673">
        <ele>325.74</ele>
        <time>2022-11-07T14:26:43Z</time>
      </trkpt>
      <trkpt lat="45.36897" lon="5.02669">
        <ele>325.65</ele>
        <time>2022-11-07T14:26:44Z</time>
      </trkpt>
      <trkpt lat="45.36894" lon="5.02664">
        <ele>325.6</ele>
        <time>2022-11-07T14:26:45Z</time>
      </trkpt>
      <trkpt lat="45.36882" lon="5.02623">
        <ele>325.22</ele>
        <time>2022-11-07T14:26:53Z</time>
      </trkpt>
      <trkpt lat="45.36871" lon="5.02575">
        <ele>324.25</ele>
        <time>2022-11-07T14:27:02Z</time>
      </trkpt>
      <trkpt lat="45.36857" lon="5.02528">
        <ele>323.93</ele>
        <time>2022-11-07T14:27:11Z</time>
      </trkpt>
      <trkpt lat="45.36853" lon="5.02496">
        <ele>323.47</ele>
        <time>2022-11-07T14:27:18Z</time>
      </trkpt>
      <trkpt lat="45.36855" lon="5.02492">
        <ele>323.35</ele>
        <time>2022-11-07T14:27:19Z</time>
      </trkpt>
      <trkpt lat="45.36858" lon="5.0249">
        <ele>323.22</ele>
        <time>2022-11-07T14:27:20Z</time>
      </trkpt>
      <trkpt lat="45.36861" lon="5.02488">
        <ele>323.1</ele>
        <time>2022-11-07T14:27:21Z</time>
      </trkpt>
      <trkpt lat="45.36864" lon="5.02488">
        <ele>322.97</ele>
        <time>2022-11-07T14:27:22Z</time>
      </trkpt>
      <trkpt lat="45.36868" lon="5.02487">
        <ele>322.8</ele>
        <time>2022-11-07T14:27:23Z</time>
      </trkpt>
      <trkpt lat="45.36895" lon="5.02484">
        <ele>321.64</ele>
        <time>2022-11-07T14:27:32Z</time>
      </trkpt>
      <trkpt lat="45.36911" lon="5.02472">
        <ele>321.48</ele>
        <time>2022-11-07T14:27:38Z</time>
      </trkpt>
      <trkpt lat="45.36912" lon="5.02448">
        <ele>321.43</ele>
        <time>2022-11-07T14:27:43Z</time>
      </trkpt>
      <trkpt lat="45.36907" lon="5.02402">
        <ele>321.49</ele>
        <time>2022-11-07T14:27:52Z</time>
      </trkpt>
      <trkpt lat="45.36905" lon="5.02357">
        <ele>321.44</ele>
        <time>2022-11-07T14:28:00Z</time>
      </trkpt>
      <trkpt lat="45.36917" lon="5.02295">
        <ele>320.95</ele>
        <time>2022-11-07T14:28:11Z</time>
      </trkpt>
      <trkpt lat="45.3693" lon="5.02231">
        <ele>320.67</ele>
        <time>2022-11-07T14:28:22Z</time>
      </trkpt>
      <trkpt lat="45.36946" lon="5.02154">
        <ele>320.02</ele>
        <time>2022-11-07T14:28:35Z</time>
      </trkpt>
      <trkpt lat="45.36963" lon="5.02072">
        <ele>319.66</ele>
        <time>2022-11-07T14:28:49Z</time>
      </trkpt>
      <trkpt lat="45.36957" lon="5.02053">
        <ele>319.38</ele>
        <time>2022-11-07T14:28:53Z</time>
      </trkpt>
      <trkpt lat="45.36947" lon="5.0203">
        <ele>319.35</ele>
        <time>2022-11-07T14:28:58Z</time>
      </trkpt>
      <trkpt lat="45.36948" lon="5.02024">
        <ele>319.3</ele>
        <time>2022-11-07T14:28:59Z</time>
      </trkpt>
      <trkpt lat="45.36949" lon="5.02018">
        <ele>319.24</ele>
        <time>2022-11-07T14:29:00Z</time>
      </trkpt>
      <trkpt lat="45.36966" lon="5.0195">
        <ele>318.44</ele>
        <time>2022-11-07T14:29:10Z</time>
      </trkpt>
      <trkpt lat="45.36981" lon="5.01887">
        <ele>317.85</ele>
        <time>2022-11-07T14:29:20Z</time>
      </trkpt>
      <trkpt lat="45.36982" lon="5.0184">
        <ele>317.85</ele>
        <time>2022-11-07T14:29:27Z</time>
      </trkpt>
      <trkpt lat="45.3698" lon="5.01821">
        <ele>317.76</ele>
        <time>2022-11-07T14:29:30Z</time>
      </trkpt>
      <trkpt lat="45.36976" lon="5.0177">
        <ele>317.65</ele>
        <time>2022-11-07T14:29:38Z</time>
      </trkpt>
      <trkpt lat="45.36972" lon="5.01704">
        <ele>318.87</ele>
        <time>2022-11-07T14:29:50Z</time>
      </trkpt>
      <trkpt lat="45.3697" lon="5.01666">
        <ele>319.94</ele>
        <time>2022-11-07T14:29:58Z</time>
      </trkpt>
      <trkpt lat="45.3696" lon="5.01642">
        <ele>320.91</ele>
        <time>2022-11-07T14:30:05Z</time>
      </trkpt>
      <trkpt lat="45.36944" lon="5.01615">
        <ele>322.18</ele>
        <time>2022-11-07T14:30:13Z</time>
      </trkpt>
      <trkpt lat="45.3694" lon="5.01574">
        <ele>322.88</ele>
        <time>2022-11-07T14:30:22Z</time>
      </trkpt>
      <trkpt lat="45.36935" lon="5.01548">
        <ele>323.34</ele>
        <time>2022-11-07T14:30:29Z</time>
      </trkpt>
      <trkpt lat="45.36916" lon="5.01496">
        <ele>324.36</ele>
        <time>2022-11-07T14:30:40Z</time>
      </trkpt>
      <trkpt lat="45.36894" lon="5.01437">
        <ele>324.36</ele>
        <time>2022-11-07T14:30:51Z</time>
      </trkpt>
      <trkpt lat="45.36869" lon="5.0137">
        <ele>324.1</ele>
        <time>2022-11-07T14:31:02Z</time>
      </trkpt>
      <trkpt lat="45.36843" lon="5.01304">
        <ele>323.25</ele>
        <time>2022-11-07T14:31:13Z</time>
      </trkpt>
      <trkpt lat="45.36816" lon="5.01227">
        <ele>322.12</ele>
        <time>2022-11-07T14:31:25Z</time>
      </trkpt>
      <trkpt lat="45.36792" lon="5.01157">
        <ele>320.8</ele>
        <time>2022-11-07T14:31:36Z</time>
      </trkpt>
      <trkpt lat="45.3679" lon="5.01151">
        <ele>320.72</ele>
        <time>2022-11-07T14:31:37Z</time>
      </trkpt>
      <trkpt lat="45.36773" lon="5.01107">
        <ele>320.07</ele>
        <time>2022-11-07T14:31:46Z</time>
      </trkpt>
      <trkpt lat="45.36765" lon="5.01076">
        <ele>319.42</ele>
        <time>2022-11-07T14:31:53Z</time>
      </trkpt>
      <trkpt lat="45.3675" lon="5.01031">
        <ele>319.65</ele>
        <time>2022-11-07T14:32:03Z</time>
      </trkpt>
      <trkpt lat="45.36731" lon="5.0098">
        <ele>320.12</ele>
        <time>2022-11-07T14:32:14Z</time>
      </trkpt>
      <trkpt lat="45.36712" lon="5.00925">
        <ele>320.42</ele>
        <time>2022-11-07T14:32:27Z</time>
      </trkpt>
      <trkpt lat="45.36696" lon="5.0088">
        <ele>320.75</ele>
        <time>2022-11-07T14:32:37Z</time>
      </trkpt>
      <trkpt lat="45.36678" lon="5.00829">
        <ele>320.47</ele>
        <time>2022-11-07T14:32:48Z</time>
      </trkpt>
      <trkpt lat="45.36658" lon="5.0078">
        <ele>319.92</ele>
        <time>2022-11-07T14:32:59Z</time>
      </trkpt>
      <trkpt lat="45.36636" lon="5.0075">
        <ele>319.54</ele>
        <time>2022-11-07T14:33:08Z</time>
      </trkpt>
      <trkpt lat="45.36615" lon="5.00737">
        <ele>319.62</ele>
        <time>2022-11-07T14:33:15Z</time>
      </trkpt>
      <trkpt lat="45.36585" lon="5.00746">
        <ele>319.84</ele>
        <time>2022-11-07T14:33:24Z</time>
      </trkpt>
      <trkpt lat="45.36581" lon="5.00748">
        <ele>319.85</ele>
        <time>2022-11-07T14:33:25Z</time>
      </trkpt>
      <trkpt lat="45.36548" lon="5.0076">
        <ele>319.79</ele>
        <time>2022-11-07T14:33:35Z</time>
      </trkpt>
      <trkpt lat="45.36519" lon="5.00766">
        <ele>319.69</ele>
        <time>2022-11-07T14:33:44Z</time>
      </trkpt>
      <trkpt lat="45.36482" lon="5.00776">
        <ele>318.9</ele>
        <time>2022-11-07T14:33:55Z</time>
      </trkpt>
      <trkpt lat="45.3645" lon="5.00784">
        <ele>318.31</ele>
        <time>2022-11-07T14:34:04Z</time>
      </trkpt>
      <trkpt lat="45.36428" lon="5.00782">
        <ele>317.67</ele>
        <time>2022-11-07T14:34:11Z</time>
      </trkpt>
      <trkpt lat="45.36424" lon="5.00778">
        <ele>316.8</ele>
        <time>2022-11-07T14:34:17Z</time>
      </trkpt>
      <trkpt lat="45.36424" lon="5.00776">
        <ele>316.52</ele>
        <time>2022-11-07T14:34:27Z</time>
      </trkpt>
      <trkpt lat="45.36424" lon="5.00774">
        <ele>316.52</ele>
        <time>2022-11-07T14:34:28Z</time>
      </trkpt>
      <trkpt lat="45.36425" lon="5.00773">
        <ele>316.54</ele>
        <time>2022-11-07T14:34:29Z</time>
      </trkpt>
      <trkpt lat="45.36425" lon="5.00771">
        <ele>316.55</ele>
        <time>2022-11-07T14:34:30Z</time>
      </trkpt>
      <trkpt lat="45.36426" lon="5.00769">
        <ele>316.57</ele>
        <time>2022-11-07T14:34:31Z</time>
      </trkpt>
      <trkpt lat="45.36428" lon="5.00767">
        <ele>316.59</ele>
        <time>2022-11-07T14:34:32Z</time>
      </trkpt>
      <trkpt lat="45.36429" lon="5.00765">
        <ele>316.61</ele>
        <time>2022-11-07T14:34:33Z</time>
      </trkpt>
      <trkpt lat="45.36437" lon="5.00748">
        <ele>317.11</ele>
        <time>2022-11-07T14:34:41Z</time>
      </trkpt>
      <trkpt lat="45.36437" lon="5.00748">
        <ele>317.16</ele>
        <time>2022-11-07T14:34:53Z</time>
      </trkpt>
      <trkpt lat="45.36437" lon="5.00747">
        <ele>316.84</ele>
        <time>2022-11-07T14:35:19Z</time>
      </trkpt>
      <trkpt lat="45.36442" lon="5.00738">
        <ele>317.01</ele>
        <time>2022-11-07T14:35:23Z</time>
      </trkpt>
      <trkpt lat="45.36463" lon="5.00696">
        <ele>318.26</ele>
        <time>2022-11-07T14:35:32Z</time>
      </trkpt>
      <trkpt lat="45.36488" lon="5.00644">
        <ele>318.54</ele>
        <time>2022-11-07T14:35:43Z</time>
      </trkpt>
      <trkpt lat="45.36497" lon="5.00625">
        <ele>318.41</ele>
        <time>2022-11-07T14:35:47Z</time>
      </trkpt>
      <trkpt lat="45.3653" lon="5.00578">
        <ele>317.95</ele>
        <time>2022-11-07T14:35:57Z</time>
      </trkpt>
      <trkpt lat="45.36562" lon="5.0054">
        <ele>317.35</ele>
        <time>2022-11-07T14:36:06Z</time>
      </trkpt>
      <trkpt lat="45.36593" lon="5.0051">
        <ele>316.9</ele>
        <time>2022-11-07T14:36:15Z</time>
      </trkpt>
      <trkpt lat="45.36622" lon="5.00504">
        <ele>316.41</ele>
        <time>2022-11-07T14:36:24Z</time>
      </trkpt>
      <trkpt lat="45.36662" lon="5.005">
        <ele>316.37</ele>
        <time>2022-11-07T14:36:36Z</time>
      </trkpt>
      <trkpt lat="45.36704" lon="5.00494">
        <ele>316.87</ele>
        <time>2022-11-07T14:36:49Z</time>
      </trkpt>
      <trkpt lat="45.36735" lon="5.0049">
        <ele>317.19</ele>
        <time>2022-11-07T14:37:00Z</time>
      </trkpt>
      <trkpt lat="45.36766" lon="5.00486">
        <ele>317.84</ele>
        <time>2022-11-07T14:37:11Z</time>
      </trkpt>
      <trkpt lat="45.36798" lon="5.00482">
        <ele>318.48</ele>
        <time>2022-11-07T14:37:23Z</time>
      </trkpt>
      <trkpt lat="45.36831" lon="5.00477">
        <ele>319.04</ele>
        <time>2022-11-07T14:37:35Z</time>
      </trkpt>
      <trkpt lat="45.36866" lon="5.00473">
        <ele>319.56</ele>
        <time>2022-11-07T14:37:48Z</time>
      </trkpt>
      <trkpt lat="45.36893" lon="5.00468">
        <ele>320.05</ele>
        <time>2022-11-07T14:37:58Z</time>
      </trkpt>
      <trkpt lat="45.36935" lon="5.0046">
        <ele>320.78</ele>
        <time>2022-11-07T14:38:13Z</time>
      </trkpt>
      <trkpt lat="45.36964" lon="5.00454">
        <ele>320.92</ele>
        <time>2022-11-07T14:38:23Z</time>
      </trkpt>
      <trkpt lat="45.36992" lon="5.00448">
        <ele>321.13</ele>
        <time>2022-11-07T14:38:33Z</time>
      </trkpt>
      <trkpt lat="45.37025" lon="5.00441">
        <ele>321.31</ele>
        <time>2022-11-07T14:38:44Z</time>
      </trkpt>
      <trkpt lat="45.37056" lon="5.00433">
        <ele>321.25</ele>
        <time>2022-11-07T14:38:55Z</time>
      </trkpt>
      <trkpt lat="45.3707" lon="5.0043">
        <ele>321.13</ele>
        <time>2022-11-07T14:39:00Z</time>
      </trkpt>
      <trkpt lat="45.37081" lon="5.00428">
        <ele>321.07</ele>
        <time>2022-11-07T14:39:04Z</time>
      </trkpt>
      <trkpt lat="45.37111" lon="5.00418">
        <ele>320.92</ele>
        <time>2022-11-07T14:39:14Z</time>
      </trkpt>
      <trkpt lat="45.37142" lon="5.00408">
        <ele>320.45</ele>
        <time>2022-11-07T14:39:24Z</time>
      </trkpt>
      <trkpt lat="45.37166" lon="5.00399">
        <ele>319.94</ele>
        <time>2022-11-07T14:39:33Z</time>
      </trkpt>
      <trkpt lat="45.37168" lon="5.00396">
        <ele>319.75</ele>
        <time>2022-11-07T14:39:35Z</time>
      </trkpt>
      <trkpt lat="45.37168" lon="5.00388">
        <ele>319.52</ele>
        <time>2022-11-07T14:39:38Z</time>
      </trkpt>
      <trkpt lat="45.37167" lon="5.00384">
        <ele>319.46</ele>
        <time>2022-11-07T14:39:39Z</time>
      </trkpt>
      <trkpt lat="45.37166" lon="5.0038">
        <ele>319.4</ele>
        <time>2022-11-07T14:39:40Z</time>
      </trkpt>
      <trkpt lat="45.37154" lon="5.00332">
        <ele>319.29</ele>
        <time>2022-11-07T14:39:50Z</time>
      </trkpt>
      <trkpt lat="45.37142" lon="5.00286">
        <ele>318.82</ele>
        <time>2022-11-07T14:39:59Z</time>
      </trkpt>
      <trkpt lat="45.37128" lon="5.00235">
        <ele>318.78</ele>
        <time>2022-11-07T14:40:09Z</time>
      </trkpt>
      <trkpt lat="45.37112" lon="5.00187">
        <ele>318.7</ele>
        <time>2022-11-07T14:40:19Z</time>
      </trkpt>
      <trkpt lat="45.3709" lon="5.00153">
        <ele>318.82</ele>
        <time>2022-11-07T14:40:28Z</time>
      </trkpt>
      <trkpt lat="45.37063" lon="5.00134">
        <ele>318.59</ele>
        <time>2022-11-07T14:40:37Z</time>
      </trkpt>
      <trkpt lat="45.37049" lon="5.00145">
        <ele>318.54</ele>
        <time>2022-11-07T14:40:42Z</time>
      </trkpt>
      <trkpt lat="45.37042" lon="5.00151">
        <ele>318.56</ele>
        <time>2022-11-07T14:40:46Z</time>
      </trkpt>
      <trkpt lat="45.37041" lon="5.00151">
        <ele>318.58</ele>
        <time>2022-11-07T14:40:47Z</time>
      </trkpt>
      <trkpt lat="45.37037" lon="5.00149">
        <ele>318.6</ele>
        <time>2022-11-07T14:40:53Z</time>
      </trkpt>
      <trkpt lat="45.37037" lon="5.00151">
        <ele>318.23</ele>
        <time>2022-11-07T14:41:05Z</time>
      </trkpt>
      <trkpt lat="45.37037" lon="5.00151">
        <ele>318.38</ele>
        <time>2022-11-07T14:41:19Z</time>
      </trkpt>
      <trkpt lat="45.37036" lon="5.00149">
        <ele>318.32</ele>
        <time>2022-11-07T14:41:38Z</time>
      </trkpt>
      <trkpt lat="45.37029" lon="5.00128">
        <ele>318.64</ele>
        <time>2022-11-07T14:41:44Z</time>
      </trkpt>
      <trkpt lat="45.37013" lon="5.00087">
        <ele>319.18</ele>
        <time>2022-11-07T14:41:52Z</time>
      </trkpt>
      <trkpt lat="45.36993" lon="5.00041">
        <ele>319.39</ele>
        <time>2022-11-07T14:42:00Z</time>
      </trkpt>
      <trkpt lat="45.36969" lon="4.99992">
        <ele>318.92</ele>
        <time>2022-11-07T14:42:09Z</time>
      </trkpt>
      <trkpt lat="45.36944" lon="4.99951">
        <ele>318.18</ele>
        <time>2022-11-07T14:42:17Z</time>
      </trkpt>
      <trkpt lat="45.36912" lon="4.99906">
        <ele>317.76</ele>
        <time>2022-11-07T14:42:27Z</time>
      </trkpt>
      <trkpt lat="45.36904" lon="4.99895">
        <ele>317.66</ele>
        <time>2022-11-07T14:42:30Z</time>
      </trkpt>
      <trkpt lat="45.36892" lon="4.99877">
        <ele>317.21</ele>
        <time>2022-11-07T14:42:34Z</time>
      </trkpt>
      <trkpt lat="45.36869" lon="4.99842">
        <ele>317.11</ele>
        <time>2022-11-07T14:42:41Z</time>
      </trkpt>
      <trkpt lat="45.36849" lon="4.9981">
        <ele>316.61</ele>
        <time>2022-11-07T14:42:47Z</time>
      </trkpt>
      <trkpt lat="45.36826" lon="4.99779">
        <ele>315.24</ele>
        <time>2022-11-07T14:42:54Z</time>
      </trkpt>
      <trkpt lat="45.36808" lon="4.99756">
        <ele>314.73</ele>
        <time>2022-11-07T14:42:59Z</time>
      </trkpt>
      <trkpt lat="45.36776" lon="4.99707">
        <ele>313.82</ele>
        <time>2022-11-07T14:43:09Z</time>
      </trkpt>
      <trkpt lat="45.3675" lon="4.99676">
        <ele>312.81</ele>
        <time>2022-11-07T14:43:17Z</time>
      </trkpt>
      <trkpt lat="45.3674" lon="4.99664">
        <ele>311.71</ele>
        <time>2022-11-07T14:43:23Z</time>
      </trkpt>
      <trkpt lat="45.36734" lon="4.9964">
        <ele>310.73</ele>
        <time>2022-11-07T14:43:30Z</time>
      </trkpt>
      <trkpt lat="45.36717" lon="4.99601">
        <ele>309.47</ele>
        <time>2022-11-07T14:43:37Z</time>
      </trkpt>
      <trkpt lat="45.36701" lon="4.99554">
        <ele>306.52</ele>
        <time>2022-11-07T14:43:43Z</time>
      </trkpt>
      <trkpt lat="45.36699" lon="4.99545">
        <ele>306.52</ele>
        <time>2022-11-07T14:43:44Z</time>
      </trkpt>
      <trkpt lat="45.3669" lon="4.99511">
        <ele>303.21</ele>
        <time>2022-11-07T14:43:48Z</time>
      </trkpt>
      <trkpt lat="45.36681" lon="4.99477">
        <ele>300.67</ele>
        <time>2022-11-07T14:43:52Z</time>
      </trkpt>
      <trkpt lat="45.36675" lon="4.99415">
        <ele>297.22</ele>
        <time>2022-11-07T14:43:59Z</time>
      </trkpt>
      <trkpt lat="45.36674" lon="4.99401">
        <ele>295.91</ele>
        <time>2022-11-07T14:44:01Z</time>
      </trkpt>
      <trkpt lat="45.36675" lon="4.99375">
        <ele>294.26</ele>
        <time>2022-11-07T14:44:05Z</time>
      </trkpt>
      <trkpt lat="45.36674" lon="4.9933">
        <ele>292.63</ele>
        <time>2022-11-07T14:44:14Z</time>
      </trkpt>
      <trkpt lat="45.36673" lon="4.99292">
        <ele>292.74</ele>
        <time>2022-11-07T14:44:21Z</time>
      </trkpt>
      <trkpt lat="45.36678" lon="4.99252">
        <ele>292.07</ele>
        <time>2022-11-07T14:44:29Z</time>
      </trkpt>
      <trkpt lat="45.36686" lon="4.99222">
        <ele>291.27</ele>
        <time>2022-11-07T14:44:37Z</time>
      </trkpt>
      <trkpt lat="45.36696" lon="4.99203">
        <ele>290.66</ele>
        <time>2022-11-07T14:44:45Z</time>
      </trkpt>
      <trkpt lat="45.36704" lon="4.99183">
        <ele>291.03</ele>
        <time>2022-11-07T14:44:52Z</time>
      </trkpt>
      <trkpt lat="45.36704" lon="4.99152">
        <ele>292.48</ele>
        <time>2022-11-07T14:45:00Z</time>
      </trkpt>
      <trkpt lat="45.36701" lon="4.99128">
        <ele>294.04</ele>
        <time>2022-11-07T14:45:07Z</time>
      </trkpt>
      <trkpt lat="45.36701" lon="4.99126">
        <ele>294.65</ele>
        <time>2022-11-07T14:45:14Z</time>
      </trkpt>
      <trkpt lat="45.36701" lon="4.99127">
        <ele>294.72</ele>
        <time>2022-11-07T14:45:19Z</time>
      </trkpt>
      <trkpt lat="45.36703" lon="4.9913">
        <ele>294.71</ele>
        <time>2022-11-07T14:45:22Z</time>
      </trkpt>
      <trkpt lat="45.36713" lon="4.99136">
        <ele>294.46</ele>
        <time>2022-11-07T14:45:29Z</time>
      </trkpt>
      <trkpt lat="45.36726" lon="4.99136">
        <ele>294.98</ele>
        <time>2022-11-07T14:45:37Z</time>
      </trkpt>
      <trkpt lat="45.36738" lon="4.99132">
        <ele>296.26</ele>
        <time>2022-11-07T14:45:43Z</time>
      </trkpt>
      <trkpt lat="45.36755" lon="4.99121">
        <ele>298.71</ele>
        <time>2022-11-07T14:45:51Z</time>
      </trkpt>
      <trkpt lat="45.36771" lon="4.99106">
        <ele>301.53</ele>
        <time>2022-11-07T14:45:59Z</time>
      </trkpt>
      <trkpt lat="45.36781" lon="4.99092">
        <ele>303.57</ele>
        <time>2022-11-07T14:46:06Z</time>
      </trkpt>
      <trkpt lat="45.36794" lon="4.99075">
        <ele>306.06</ele>
        <time>2022-11-07T14:46:15Z</time>
      </trkpt>
      <trkpt lat="45.36803" lon="4.99062">
        <ele>308.05</ele>
        <time>2022-11-07T14:46:23Z</time>
      </trkpt>
      <trkpt lat="45.36806" lon="4.99058">
        <ele>308.33</ele>
        <time>2022-11-07T14:46:26Z</time>
      </trkpt>
      <trkpt lat="45.3681" lon="4.99053">
        <ele>308.48</ele>
        <time>2022-11-07T14:46:30Z</time>
      </trkpt>
      <trkpt lat="45.36821" lon="4.99043">
        <ele>308.78</ele>
        <time>2022-11-07T14:46:40Z</time>
      </trkpt>
      <trkpt lat="45.3683" lon="4.99032">
        <ele>309.31</ele>
        <time>2022-11-07T14:46:47Z</time>
      </trkpt>
      <trkpt lat="45.36844" lon="4.99018">
        <ele>309.81</ele>
        <time>2022-11-07T14:46:58Z</time>
      </trkpt>
      <trkpt lat="45.3686" lon="4.99003">
        <ele>310.19</ele>
        <time>2022-11-07T14:47:09Z</time>
      </trkpt>
      <trkpt lat="45.36874" lon="4.98991">
        <ele>310.32</ele>
        <time>2022-11-07T14:47:18Z</time>
      </trkpt>
      <trkpt lat="45.36885" lon="4.9898">
        <ele>310.54</ele>
        <time>2022-11-07T14:47:26Z</time>
      </trkpt>
      <trkpt lat="45.36892" lon="4.9897">
        <ele>310.49</ele>
        <time>2022-11-07T14:47:34Z</time>
      </trkpt>
      <trkpt lat="45.36892" lon="4.98969">
        <ele>310.34</ele>
        <time>2022-11-07T14:47:41Z</time>
      </trkpt>
      <trkpt lat="45.36892" lon="4.98968">
        <ele>310.25</ele>
        <time>2022-11-07T14:48:12Z</time>
      </trkpt>
      <trkpt lat="45.36892" lon="4.98967">
        <ele>310.31</ele>
        <time>2022-11-07T14:48:16Z</time>
      </trkpt>
      <trkpt lat="45.36891" lon="4.9896">
        <ele>310.38</ele>
        <time>2022-11-07T14:48:19Z</time>
      </trkpt>
      <trkpt lat="45.36891" lon="4.98956">
        <ele>310.38</ele>
        <time>2022-11-07T14:48:20Z</time>
      </trkpt>
      <trkpt lat="45.36891" lon="4.98952">
        <ele>310.38</ele>
        <time>2022-11-07T14:48:21Z</time>
      </trkpt>
      <trkpt lat="45.36884" lon="4.98903">
        <ele>311</ele>
        <time>2022-11-07T14:48:30Z</time>
      </trkpt>
      <trkpt lat="45.36875" lon="4.98849">
        <ele>310.95</ele>
        <time>2022-11-07T14:48:40Z</time>
      </trkpt>
      <trkpt lat="45.36879" lon="4.98825">
        <ele>310.37</ele>
        <time>2022-11-07T14:48:46Z</time>
      </trkpt>
      <trkpt lat="45.36893" lon="4.98784">
        <ele>310.22</ele>
        <time>2022-11-07T14:48:54Z</time>
      </trkpt>
      <trkpt lat="45.36907" lon="4.98752">
        <ele>309.95</ele>
        <time>2022-11-07T14:49:02Z</time>
      </trkpt>
      <trkpt lat="45.36925" lon="4.98711">
        <ele>309.88</ele>
        <time>2022-11-07T14:49:13Z</time>
      </trkpt>
      <trkpt lat="45.36938" lon="4.98679">
        <ele>309.62</ele>
        <time>2022-11-07T14:49:21Z</time>
      </trkpt>
      <trkpt lat="45.36966" lon="4.9863">
        <ele>309.61</ele>
        <time>2022-11-07T14:49:31Z</time>
      </trkpt>
      <trkpt lat="45.36992" lon="4.98586">
        <ele>309.18</ele>
        <time>2022-11-07T14:49:40Z</time>
      </trkpt>
      <trkpt lat="45.37012" lon="4.9854">
        <ele>308.54</ele>
        <time>2022-11-07T14:49:49Z</time>
      </trkpt>
      <trkpt lat="45.37015" lon="4.98535">
        <ele>308.35</ele>
        <time>2022-11-07T14:49:50Z</time>
      </trkpt>
      <trkpt lat="45.37029" lon="4.98499">
        <ele>308.06</ele>
        <time>2022-11-07T14:49:57Z</time>
      </trkpt>
      <trkpt lat="45.37049" lon="4.98452">
        <ele>308.02</ele>
        <time>2022-11-07T14:50:07Z</time>
      </trkpt>
      <trkpt lat="45.3707" lon="4.98383">
        <ele>308.74</ele>
        <time>2022-11-07T14:50:21Z</time>
      </trkpt>
      <trkpt lat="45.37084" lon="4.98325">
        <ele>308.99</ele>
        <time>2022-11-07T14:50:33Z</time>
      </trkpt>
      <trkpt lat="45.3709" lon="4.98285">
        <ele>309.23</ele>
        <time>2022-11-07T14:50:41Z</time>
      </trkpt>
      <trkpt lat="45.37091" lon="4.98232">
        <ele>309.57</ele>
        <time>2022-11-07T14:50:51Z</time>
      </trkpt>
      <trkpt lat="45.37092" lon="4.98191">
        <ele>310.07</ele>
        <time>2022-11-07T14:50:59Z</time>
      </trkpt>
      <trkpt lat="45.37093" lon="4.98149">
        <ele>310.46</ele>
        <time>2022-11-07T14:51:07Z</time>
      </trkpt>
      <trkpt lat="45.37099" lon="4.98101">
        <ele>310.29</ele>
        <time>2022-11-07T14:51:16Z</time>
      </trkpt>
      <trkpt lat="45.37114" lon="4.9806">
        <ele>310.01</ele>
        <time>2022-11-07T14:51:25Z</time>
      </trkpt>
      <trkpt lat="45.37128" lon="4.98024">
        <ele>310.17</ele>
        <time>2022-11-07T14:51:33Z</time>
      </trkpt>
      <trkpt lat="45.37143" lon="4.97991">
        <ele>310.29</ele>
        <time>2022-11-07T14:51:41Z</time>
      </trkpt>
      <trkpt lat="45.37162" lon="4.97953">
        <ele>310.84</ele>
        <time>2022-11-07T14:51:50Z</time>
      </trkpt>
      <trkpt lat="45.37177" lon="4.97923">
        <ele>311.15</ele>
        <time>2022-11-07T14:51:57Z</time>
      </trkpt>
      <trkpt lat="45.37197" lon="4.97884">
        <ele>311.31</ele>
        <time>2022-11-07T14:52:06Z</time>
      </trkpt>
      <trkpt lat="45.37212" lon="4.97846">
        <ele>311.86</ele>
        <time>2022-11-07T14:52:14Z</time>
      </trkpt>
      <trkpt lat="45.37232" lon="4.978">
        <ele>312.31</ele>
        <time>2022-11-07T14:52:24Z</time>
      </trkpt>
      <trkpt lat="45.37255" lon="4.97749">
        <ele>312.75</ele>
        <time>2022-11-07T14:52:35Z</time>
      </trkpt>
      <trkpt lat="45.37285" lon="4.97712">
        <ele>312.75</ele>
        <time>2022-11-07T14:52:46Z</time>
      </trkpt>
      <trkpt lat="45.3732" lon="4.97676">
        <ele>313.25</ele>
        <time>2022-11-07T14:52:58Z</time>
      </trkpt>
      <trkpt lat="45.37346" lon="4.97642">
        <ele>313.76</ele>
        <time>2022-11-07T14:53:08Z</time>
      </trkpt>
      <trkpt lat="45.37365" lon="4.97593">
        <ele>314.5</ele>
        <time>2022-11-07T14:53:18Z</time>
      </trkpt>
      <trkpt lat="45.37384" lon="4.97534">
        <ele>314.3</ele>
        <time>2022-11-07T14:53:29Z</time>
      </trkpt>
      <trkpt lat="45.37401" lon="4.97484">
        <ele>314.36</ele>
        <time>2022-11-07T14:53:38Z</time>
      </trkpt>
      <trkpt lat="45.37413" lon="4.97449">
        <ele>314.11</ele>
        <time>2022-11-07T14:53:45Z</time>
      </trkpt>
      <trkpt lat="45.37418" lon="4.9744">
        <ele>313.84</ele>
        <time>2022-11-07T14:53:47Z</time>
      </trkpt>
      <trkpt lat="45.37421" lon="4.97436">
        <ele>313.63</ele>
        <time>2022-11-07T14:53:48Z</time>
      </trkpt>
      <trkpt lat="45.3745" lon="4.974">
        <ele>313.23</ele>
        <time>2022-11-07T14:53:57Z</time>
      </trkpt>
      <trkpt lat="45.37478" lon="4.97357">
        <ele>313.02</ele>
        <time>2022-11-07T14:54:07Z</time>
      </trkpt>
      <trkpt lat="45.37502" lon="4.97311">
        <ele>313.47</ele>
        <time>2022-11-07T14:54:17Z</time>
      </trkpt>
      <trkpt lat="45.37525" lon="4.97254">
        <ele>313.87</ele>
        <time>2022-11-07T14:54:28Z</time>
      </trkpt>
      <trkpt lat="45.37545" lon="4.97195">
        <ele>313.94</ele>
        <time>2022-11-07T14:54:39Z</time>
      </trkpt>
      <trkpt lat="45.37556" lon="4.9714">
        <ele>313.59</ele>
        <time>2022-11-07T14:54:49Z</time>
      </trkpt>
      <trkpt lat="45.37559" lon="4.97116">
        <ele>313.46</ele>
        <time>2022-11-07T14:54:53Z</time>
      </trkpt>
      <trkpt lat="45.37567" lon="4.97063">
        <ele>312.84</ele>
        <time>2022-11-07T14:55:01Z</time>
      </trkpt>
      <trkpt lat="45.37572" lon="4.97018">
        <ele>311.62</ele>
        <time>2022-11-07T14:55:08Z</time>
      </trkpt>
      <trkpt lat="45.37568" lon="4.96995">
        <ele>310.08</ele>
        <time>2022-11-07T14:55:14Z</time>
      </trkpt>
      <trkpt lat="45.37569" lon="4.96991">
        <ele>309.89</ele>
        <time>2022-11-07T14:55:15Z</time>
      </trkpt>
      <trkpt lat="45.3757" lon="4.96988">
        <ele>309.75</ele>
        <time>2022-11-07T14:55:16Z</time>
      </trkpt>
      <trkpt lat="45.37584" lon="4.96951">
        <ele>309.48</ele>
        <time>2022-11-07T14:55:26Z</time>
      </trkpt>
      <trkpt lat="45.37596" lon="4.96919">
        <ele>309.46</ele>
        <time>2022-11-07T14:55:34Z</time>
      </trkpt>
      <trkpt lat="45.37612" lon="4.96885">
        <ele>309.56</ele>
        <time>2022-11-07T14:55:43Z</time>
      </trkpt>
      <trkpt lat="45.37625" lon="4.9686">
        <ele>310.03</ele>
        <time>2022-11-07T14:55:50Z</time>
      </trkpt>
      <trkpt lat="45.37643" lon="4.96834">
        <ele>310.79</ele>
        <time>2022-11-07T14:55:58Z</time>
      </trkpt>
      <trkpt lat="45.37656" lon="4.96819">
        <ele>311.1</ele>
        <time>2022-11-07T14:56:05Z</time>
      </trkpt>
      <trkpt lat="45.37658" lon="4.96817">
        <ele>311.15</ele>
        <time>2022-11-07T14:56:11Z</time>
      </trkpt>
      <trkpt lat="45.3766" lon="4.96815">
        <ele>311.11</ele>
        <time>2022-11-07T14:56:15Z</time>
      </trkpt>
      <trkpt lat="45.37661" lon="4.96815">
        <ele>311.11</ele>
        <time>2022-11-07T14:56:16Z</time>
      </trkpt>
      <trkpt lat="45.37662" lon="4.96814">
        <ele>311.14</ele>
        <time>2022-11-07T14:56:17Z</time>
      </trkpt>
      <trkpt lat="45.37663" lon="4.96812">
        <ele>311.16</ele>
        <time>2022-11-07T14:56:18Z</time>
      </trkpt>
      <trkpt lat="45.37664" lon="4.96811">
        <ele>311.18</ele>
        <time>2022-11-07T14:56:19Z</time>
      </trkpt>
      <trkpt lat="45.37666" lon="4.96808">
        <ele>311.43</ele>
        <time>2022-11-07T14:56:26Z</time>
      </trkpt>
      <trkpt lat="45.37667" lon="4.96807">
        <ele>311.65</ele>
        <time>2022-11-07T14:56:30Z</time>
      </trkpt>
      <trkpt lat="45.37669" lon="4.96807">
        <ele>311.69</ele>
        <time>2022-11-07T14:56:31Z</time>
      </trkpt>
      <trkpt lat="45.37671" lon="4.96807">
        <ele>311.69</ele>
        <time>2022-11-07T14:56:32Z</time>
      </trkpt>
      <trkpt lat="45.37673" lon="4.96807">
        <ele>311.69</ele>
        <time>2022-11-07T14:56:33Z</time>
      </trkpt>
      <trkpt lat="45.37674" lon="4.96807">
        <ele>311.69</ele>
        <time>2022-11-07T14:56:34Z</time>
      </trkpt>
      <trkpt lat="45.37676" lon="4.96807">
        <ele>311.67</ele>
        <time>2022-11-07T14:56:35Z</time>
      </trkpt>
      <trkpt lat="45.37677" lon="4.96808">
        <ele>311.64</ele>
        <time>2022-11-07T14:56:36Z</time>
      </trkpt>
      <trkpt lat="45.37678" lon="4.96807">
        <ele>311.63</ele>
        <time>2022-11-07T14:56:43Z</time>
      </trkpt>
      <trkpt lat="45.3768" lon="4.96807">
        <ele>311.49</ele>
        <time>2022-11-07T14:56:53Z</time>
      </trkpt>
      <trkpt lat="45.37681" lon="4.96807">
        <ele>311.5</ele>
        <time>2022-11-07T14:56:54Z</time>
      </trkpt>
      <trkpt lat="45.37683" lon="4.96807">
        <ele>311.53</ele>
        <time>2022-11-07T14:56:55Z</time>
      </trkpt>
      <trkpt lat="45.37685" lon="4.96807">
        <ele>311.57</ele>
        <time>2022-11-07T14:56:56Z</time>
      </trkpt>
      <trkpt lat="45.37686" lon="4.96807">
        <ele>311.66</ele>
        <time>2022-11-07T14:56:57Z</time>
      </trkpt>
      <trkpt lat="45.37704" lon="4.96809">
        <ele>312.23</ele>
        <time>2022-11-07T14:57:05Z</time>
      </trkpt>
      <trkpt lat="45.37727" lon="4.96807">
        <ele>313</ele>
        <time>2022-11-07T14:57:14Z</time>
      </trkpt>
      <trkpt lat="45.37756" lon="4.96796">
        <ele>313.99</ele>
        <time>2022-11-07T14:57:25Z</time>
      </trkpt>
      <trkpt lat="45.37786" lon="4.96784">
        <ele>315.32</ele>
        <time>2022-11-07T14:57:36Z</time>
      </trkpt>
      <trkpt lat="45.37815" lon="4.96772">
        <ele>316.82</ele>
        <time>2022-11-07T14:57:47Z</time>
      </trkpt>
      <trkpt lat="45.37843" lon="4.96762">
        <ele>318.41</ele>
        <time>2022-11-07T14:57:58Z</time>
      </trkpt>
      <trkpt lat="45.37875" lon="4.96754">
        <ele>320.13</ele>
        <time>2022-11-07T14:58:10Z</time>
      </trkpt>
      <trkpt lat="45.37896" lon="4.96751">
        <ele>321.45</ele>
        <time>2022-11-07T14:58:19Z</time>
      </trkpt>
      <trkpt lat="45.37917" lon="4.96748">
        <ele>323.19</ele>
        <time>2022-11-07T14:58:28Z</time>
      </trkpt>
      <trkpt lat="45.37935" lon="4.96737">
        <ele>324.71</ele>
        <time>2022-11-07T14:58:36Z</time>
      </trkpt>
      <trkpt lat="45.37954" lon="4.96727">
        <ele>326.74</ele>
        <time>2022-11-07T14:58:44Z</time>
      </trkpt>
      <trkpt lat="45.37977" lon="4.9672">
        <ele>329.22</ele>
        <time>2022-11-07T14:58:53Z</time>
      </trkpt>
      <trkpt lat="45.37998" lon="4.96716">
        <ele>330.89</ele>
        <time>2022-11-07T14:59:01Z</time>
      </trkpt>
      <trkpt lat="45.38027" lon="4.96709">
        <ele>333.44</ele>
        <time>2022-11-07T14:59:11Z</time>
      </trkpt>
      <trkpt lat="45.38033" lon="4.96707">
        <ele>334.02</ele>
        <time>2022-11-07T14:59:13Z</time>
      </trkpt>
      <trkpt lat="45.38056" lon="4.96703">
        <ele>335.25</ele>
        <time>2022-11-07T14:59:21Z</time>
      </trkpt>
      <trkpt lat="45.38069" lon="4.9669">
        <ele>336.22</ele>
        <time>2022-11-07T14:59:27Z</time>
      </trkpt>
      <trkpt lat="45.38075" lon="4.96661">
        <ele>337.62</ele>
        <time>2022-11-07T14:59:34Z</time>
      </trkpt>
      <trkpt lat="45.38081" lon="4.96621">
        <ele>339.14</ele>
        <time>2022-11-07T14:59:43Z</time>
      </trkpt>
      <trkpt lat="45.3809" lon="4.96585">
        <ele>340.15</ele>
        <time>2022-11-07T14:59:51Z</time>
      </trkpt>
      <trkpt lat="45.38096" lon="4.96543">
        <ele>341.56</ele>
        <time>2022-11-07T15:00:00Z</time>
      </trkpt>
      <trkpt lat="45.38096" lon="4.96508">
        <ele>341.76</ele>
        <time>2022-11-07T15:00:08Z</time>
      </trkpt>
      <trkpt lat="45.38096" lon="4.96504">
        <ele>341.32</ele>
        <time>2022-11-07T15:00:13Z</time>
      </trkpt>
      <trkpt lat="45.38095" lon="4.965">
        <ele>341.09</ele>
        <time>2022-11-07T15:00:27Z</time>
      </trkpt>
      <trkpt lat="45.38095" lon="4.96495">
        <ele>341.13</ele>
        <time>2022-11-07T15:00:29Z</time>
      </trkpt>
      <trkpt lat="45.38094" lon="4.96491">
        <ele>341.16</ele>
        <time>2022-11-07T15:00:30Z</time>
      </trkpt>
      <trkpt lat="45.38091" lon="4.96461">
        <ele>341.56</ele>
        <time>2022-11-07T15:00:37Z</time>
      </trkpt>
      <trkpt lat="45.38091" lon="4.96416">
        <ele>341.81</ele>
        <time>2022-11-07T15:00:46Z</time>
      </trkpt>
      <trkpt lat="45.38093" lon="4.9638">
        <ele>342.35</ele>
        <time>2022-11-07T15:00:54Z</time>
      </trkpt>
      <trkpt lat="45.38092" lon="4.96369">
        <ele>342.44</ele>
        <time>2022-11-07T15:00:56Z</time>
      </trkpt>
      <trkpt lat="45.38096" lon="4.96315">
        <ele>342.24</ele>
        <time>2022-11-07T15:01:03Z</time>
      </trkpt>
      <trkpt lat="45.38099" lon="4.96253">
        <ele>340.9</ele>
        <time>2022-11-07T15:01:10Z</time>
      </trkpt>
      <trkpt lat="45.38098" lon="4.96236">
        <ele>339.39</ele>
        <time>2022-11-07T15:01:14Z</time>
      </trkpt>
      <trkpt lat="45.38092" lon="4.96214">
        <ele>338.36</ele>
        <time>2022-11-07T15:01:19Z</time>
      </trkpt>
      <trkpt lat="45.3808" lon="4.96188">
        <ele>338.44</ele>
        <time>2022-11-07T15:01:27Z</time>
      </trkpt>
      <trkpt lat="45.38077" lon="4.96178">
        <ele>338.57</ele>
        <time>2022-11-07T15:01:32Z</time>
      </trkpt>
      <trkpt lat="45.38078" lon="4.96177">
        <ele>338.61</ele>
        <time>2022-11-07T15:01:33Z</time>
      </trkpt>
      <trkpt lat="45.38077" lon="4.96177">
        <ele>338.88</ele>
        <time>2022-11-07T15:01:38Z</time>
      </trkpt>
      <trkpt lat="45.38078" lon="4.96177">
        <ele>338.99</ele>
        <time>2022-11-07T15:01:45Z</time>
      </trkpt>
      <trkpt lat="45.38082" lon="4.96174">
        <ele>339.03</ele>
        <time>2022-11-07T15:01:48Z</time>
      </trkpt>
      <trkpt lat="45.38102" lon="4.96155">
        <ele>340.21</ele>
        <time>2022-11-07T15:01:57Z</time>
      </trkpt>
      <trkpt lat="45.38119" lon="4.96138">
        <ele>341.65</ele>
        <time>2022-11-07T15:02:05Z</time>
      </trkpt>
      <trkpt lat="45.38141" lon="4.96133">
        <ele>342.68</ele>
        <time>2022-11-07T15:02:13Z</time>
      </trkpt>
      <trkpt lat="45.38163" lon="4.96126">
        <ele>343.64</ele>
        <time>2022-11-07T15:02:21Z</time>
      </trkpt>
      <trkpt lat="45.38186" lon="4.96122">
        <ele>344.75</ele>
        <time>2022-11-07T15:02:30Z</time>
      </trkpt>
      <trkpt lat="45.38204" lon="4.96121">
        <ele>345.03</ele>
        <time>2022-11-07T15:02:38Z</time>
      </trkpt>
      <trkpt lat="45.38225" lon="4.96116">
        <ele>345.67</ele>
        <time>2022-11-07T15:02:47Z</time>
      </trkpt>
      <trkpt lat="45.38243" lon="4.96106">
        <ele>346.64</ele>
        <time>2022-11-07T15:02:56Z</time>
      </trkpt>
      <trkpt lat="45.38254" lon="4.961">
        <ele>347.68</ele>
        <time>2022-11-07T15:03:03Z</time>
      </trkpt>
      <trkpt lat="45.38271" lon="4.96091">
        <ele>349.35</ele>
        <time>2022-11-07T15:03:12Z</time>
      </trkpt>
      <trkpt lat="45.38287" lon="4.96092">
        <ele>350.5</ele>
        <time>2022-11-07T15:03:20Z</time>
      </trkpt>
      <trkpt lat="45.38301" lon="4.96102">
        <ele>351.63</ele>
        <time>2022-11-07T15:03:28Z</time>
      </trkpt>
      <trkpt lat="45.38311" lon="4.9611">
        <ele>352.75</ele>
        <time>2022-11-07T15:03:34Z</time>
      </trkpt>
      <trkpt lat="45.38329" lon="4.96117">
        <ele>355.86</ele>
        <time>2022-11-07T15:03:43Z</time>
      </trkpt>
      <trkpt lat="45.38333" lon="4.96119">
        <ele>356.51</ele>
        <time>2022-11-07T15:03:45Z</time>
      </trkpt>
      <trkpt lat="45.38349" lon="4.9613">
        <ele>358.25</ele>
        <time>2022-11-07T15:03:53Z</time>
      </trkpt>
      <trkpt lat="45.3837" lon="4.96138">
        <ele>358.89</ele>
        <time>2022-11-07T15:04:02Z</time>
      </trkpt>
      <trkpt lat="45.38387" lon="4.96144">
        <ele>360.24</ele>
        <time>2022-11-07T15:04:11Z</time>
      </trkpt>
      <trkpt lat="45.38399" lon="4.96151">
        <ele>361.48</ele>
        <time>2022-11-07T15:04:18Z</time>
      </trkpt>
      <trkpt lat="45.38414" lon="4.96159">
        <ele>362.71</ele>
        <time>2022-11-07T15:04:26Z</time>
      </trkpt>
      <trkpt lat="45.38426" lon="4.96165">
        <ele>363.8</ele>
        <time>2022-11-07T15:04:33Z</time>
      </trkpt>
      <trkpt lat="45.38438" lon="4.96172">
        <ele>364.74</ele>
        <time>2022-11-07T15:04:40Z</time>
      </trkpt>
      <trkpt lat="45.38442" lon="4.96174">
        <ele>364.94</ele>
        <time>2022-11-07T15:04:42Z</time>
      </trkpt>
      <trkpt lat="45.38462" lon="4.96178">
        <ele>365.9</ele>
        <time>2022-11-07T15:04:52Z</time>
      </trkpt>
      <trkpt lat="45.3848" lon="4.96178">
        <ele>366.97</ele>
        <time>2022-11-07T15:05:00Z</time>
      </trkpt>
      <trkpt lat="45.38498" lon="4.96179">
        <ele>367.61</ele>
        <time>2022-11-07T15:05:07Z</time>
      </trkpt>
      <trkpt lat="45.38514" lon="4.9618">
        <ele>368.45</ele>
        <time>2022-11-07T15:05:15Z</time>
      </trkpt>
      <trkpt lat="45.38533" lon="4.96179">
        <ele>369.79</ele>
        <time>2022-11-07T15:05:23Z</time>
      </trkpt>
      <trkpt lat="45.38538" lon="4.9618">
        <ele>370.44</ele>
        <time>2022-11-07T15:05:25Z</time>
      </trkpt>
      <trkpt lat="45.38543" lon="4.96179">
        <ele>370.89</ele>
        <time>2022-11-07T15:05:27Z</time>
      </trkpt>
      <trkpt lat="45.38566" lon="4.96175">
        <ele>374.44</ele>
        <time>2022-11-07T15:05:35Z</time>
      </trkpt>
      <trkpt lat="45.3858" lon="4.96174">
        <ele>377.77</ele>
        <time>2022-11-07T15:05:41Z</time>
      </trkpt>
      <trkpt lat="45.38583" lon="4.96172">
        <ele>378.91</ele>
        <time>2022-11-07T15:05:43Z</time>
      </trkpt>
      <trkpt lat="45.38598" lon="4.96154">
        <ele>382.84</ele>
        <time>2022-11-07T15:05:51Z</time>
      </trkpt>
      <trkpt lat="45.38607" lon="4.96142">
        <ele>385.89</ele>
        <time>2022-11-07T15:05:56Z</time>
      </trkpt>
      <trkpt lat="45.38619" lon="4.96137">
        <ele>389.17</ele>
        <time>2022-11-07T15:06:02Z</time>
      </trkpt>
      <trkpt lat="45.3863" lon="4.96135">
        <ele>392.19</ele>
        <time>2022-11-07T15:06:08Z</time>
      </trkpt>
      <trkpt lat="45.38638" lon="4.96129">
        <ele>394.31</ele>
        <time>2022-11-07T15:06:15Z</time>
      </trkpt>
      <trkpt lat="45.38645" lon="4.96124">
        <ele>395.74</ele>
        <time>2022-11-07T15:06:22Z</time>
      </trkpt>
      <trkpt lat="45.38646" lon="4.96122">
        <ele>395.87</ele>
        <time>2022-11-07T15:06:23Z</time>
      </trkpt>
      <trkpt lat="45.38647" lon="4.96121">
        <ele>395.99</ele>
        <time>2022-11-07T15:06:24Z</time>
      </trkpt>
      <trkpt lat="45.38648" lon="4.96119">
        <ele>396.11</ele>
        <time>2022-11-07T15:06:25Z</time>
      </trkpt>
      <trkpt lat="45.38648" lon="4.96116">
        <ele>396.23</ele>
        <time>2022-11-07T15:06:26Z</time>
      </trkpt>
      <trkpt lat="45.38648" lon="4.96113">
        <ele>396.33</ele>
        <time>2022-11-07T15:06:27Z</time>
      </trkpt>
      <trkpt lat="45.38648" lon="4.9611">
        <ele>396.4</ele>
        <time>2022-11-07T15:06:28Z</time>
      </trkpt>
      <trkpt lat="45.38647" lon="4.96107">
        <ele>396.47</ele>
        <time>2022-11-07T15:06:29Z</time>
      </trkpt>
      <trkpt lat="45.38647" lon="4.96103">
        <ele>396.5</ele>
        <time>2022-11-07T15:06:30Z</time>
      </trkpt>
      <trkpt lat="45.38647" lon="4.96097">
        <ele>396.49</ele>
        <time>2022-11-07T15:06:35Z</time>
      </trkpt>
      <trkpt lat="45.38649" lon="4.96093">
        <ele>396.8</ele>
        <time>2022-11-07T15:06:49Z</time>
      </trkpt>
      <trkpt lat="45.38651" lon="4.96087">
        <ele>396.73</ele>
        <time>2022-11-07T15:07:04Z</time>
      </trkpt>
      <trkpt lat="45.38649" lon="4.96089">
        <ele>396.64</ele>
        <time>2022-11-07T15:07:14Z</time>
      </trkpt>
      <trkpt lat="45.38651" lon="4.96093">
        <ele>396.79</ele>
        <time>2022-11-07T15:07:19Z</time>
      </trkpt>
      <trkpt lat="45.38653" lon="4.96095">
        <ele>396.83</ele>
        <time>2022-11-07T15:07:20Z</time>
      </trkpt>
      <trkpt lat="45.38646" lon="4.96113">
        <ele>397.19</ele>
        <time>2022-11-07T15:07:25Z</time>
      </trkpt>
      <trkpt lat="45.38641" lon="4.96116">
        <ele>397.28</ele>
        <time>2022-11-07T15:07:26Z</time>
      </trkpt>
      <trkpt lat="45.38637" lon="4.96118">
        <ele>397.34</ele>
        <time>2022-11-07T15:07:27Z</time>
      </trkpt>
      <trkpt lat="45.38615" lon="4.96124">
        <ele>396.08</ele>
        <time>2022-11-07T15:07:33Z</time>
      </trkpt>
      <trkpt lat="45.38606" lon="4.96131">
        <ele>392.62</ele>
        <time>2022-11-07T15:07:37Z</time>
      </trkpt>
      <trkpt lat="45.38599" lon="4.9614">
        <ele>389.61</ele>
        <time>2022-11-07T15:07:42Z</time>
      </trkpt>
      <trkpt lat="45.38598" lon="4.96144">
        <ele>386.82</ele>
        <time>2022-11-07T15:07:50Z</time>
      </trkpt>
      <trkpt lat="45.38598" lon="4.96143">
        <ele>385.97</ele>
        <time>2022-11-07T15:08:12Z</time>
      </trkpt>
      <trkpt lat="45.38601" lon="4.96146">
        <ele>386.2</ele>
        <time>2022-11-07T15:08:45Z</time>
      </trkpt>
      <trkpt lat="45.386" lon="4.96147">
        <ele>386.08</ele>
        <time>2022-11-07T15:09:11Z</time>
      </trkpt>
      <trkpt lat="45.38599" lon="4.96148">
        <ele>386.16</ele>
        <time>2022-11-07T15:09:22Z</time>
      </trkpt>
      <trkpt lat="45.38598" lon="4.9615">
        <ele>386.13</ele>
        <time>2022-11-07T15:09:23Z</time>
      </trkpt>
      <trkpt lat="45.38597" lon="4.96151">
        <ele>386.09</ele>
        <time>2022-11-07T15:09:24Z</time>
      </trkpt>
      <trkpt lat="45.38596" lon="4.96153">
        <ele>386.02</ele>
        <time>2022-11-07T15:09:25Z</time>
      </trkpt>
      <trkpt lat="45.38595" lon="4.96154">
        <ele>385.92</ele>
        <time>2022-11-07T15:09:26Z</time>
      </trkpt>
      <trkpt lat="45.38591" lon="4.96154">
        <ele>384.59</ele>
        <time>2022-11-07T15:09:33Z</time>
      </trkpt>
      <trkpt lat="45.38589" lon="4.96155">
        <ele>383.92</ele>
        <time>2022-11-07T15:09:38Z</time>
      </trkpt>
      <trkpt lat="45.38585" lon="4.96158">
        <ele>383.61</ele>
        <time>2022-11-07T15:09:41Z</time>
      </trkpt>
      <trkpt lat="45.38572" lon="4.96164">
        <ele>381.56</ele>
        <time>2022-11-07T15:09:49Z</time>
      </trkpt>
      <trkpt lat="45.38558" lon="4.96168">
        <ele>378.1</ele>
        <time>2022-11-07T15:09:55Z</time>
      </trkpt>
      <trkpt lat="45.38538" lon="4.96169">
        <ele>375.03</ele>
        <time>2022-11-07T15:10:01Z</time>
      </trkpt>
      <trkpt lat="45.3853" lon="4.9617">
        <ele>374.11</ele>
        <time>2022-11-07T15:10:03Z</time>
      </trkpt>
      <trkpt lat="45.38489" lon="4.9617">
        <ele>370.43</ele>
        <time>2022-11-07T15:10:12Z</time>
      </trkpt>
      <trkpt lat="45.3846" lon="4.9617">
        <ele>368.39</ele>
        <time>2022-11-07T15:10:20Z</time>
      </trkpt>
      <trkpt lat="45.38441" lon="4.96162">
        <ele>367.09</ele>
        <time>2022-11-07T15:10:25Z</time>
      </trkpt>
      <trkpt lat="45.38423" lon="4.96151">
        <ele>365.92</ele>
        <time>2022-11-07T15:10:29Z</time>
      </trkpt>
      <trkpt lat="45.38379" lon="4.96135">
        <ele>363.9</ele>
        <time>2022-11-07T15:10:36Z</time>
      </trkpt>
      <trkpt lat="45.38349" lon="4.96124">
        <ele>361.09</ele>
        <time>2022-11-07T15:10:41Z</time>
      </trkpt>
      <trkpt lat="45.38316" lon="4.96108">
        <ele>358.89</ele>
        <time>2022-11-07T15:10:48Z</time>
      </trkpt>
      <trkpt lat="45.38292" lon="4.9609">
        <ele>356.93</ele>
        <time>2022-11-07T15:10:52Z</time>
      </trkpt>
      <trkpt lat="45.3826" lon="4.96086">
        <ele>353.36</ele>
        <time>2022-11-07T15:10:57Z</time>
      </trkpt>
      <trkpt lat="45.38233" lon="4.96102">
        <ele>350.83</ele>
        <time>2022-11-07T15:11:02Z</time>
      </trkpt>
      <trkpt lat="45.38193" lon="4.96111">
        <ele>347.35</ele>
        <time>2022-11-07T15:11:09Z</time>
      </trkpt>
      <trkpt lat="45.38166" lon="4.96113">
        <ele>345.53</ele>
        <time>2022-11-07T15:11:15Z</time>
      </trkpt>
      <trkpt lat="45.38134" lon="4.9612">
        <ele>344.72</ele>
        <time>2022-11-07T15:11:23Z</time>
      </trkpt>
      <trkpt lat="45.38116" lon="4.96127">
        <ele>344.05</ele>
        <time>2022-11-07T15:11:27Z</time>
      </trkpt>
      <trkpt lat="45.38112" lon="4.9613">
        <ele>343.84</ele>
        <time>2022-11-07T15:11:28Z</time>
      </trkpt>
      <trkpt lat="45.38107" lon="4.96133">
        <ele>343.61</ele>
        <time>2022-11-07T15:11:29Z</time>
      </trkpt>
      <trkpt lat="45.38103" lon="4.96138">
        <ele>343.35</ele>
        <time>2022-11-07T15:11:30Z</time>
      </trkpt>
      <trkpt lat="45.381" lon="4.96144">
        <ele>343.09</ele>
        <time>2022-11-07T15:11:31Z</time>
      </trkpt>
      <trkpt lat="45.38096" lon="4.96149">
        <ele>342.85</ele>
        <time>2022-11-07T15:11:32Z</time>
      </trkpt>
      <trkpt lat="45.38091" lon="4.96154">
        <ele>342.6</ele>
        <time>2022-11-07T15:11:33Z</time>
      </trkpt>
      <trkpt lat="45.38087" lon="4.96158">
        <ele>342.32</ele>
        <time>2022-11-07T15:11:34Z</time>
      </trkpt>
      <trkpt lat="45.38074" lon="4.9617">
        <ele>340.88</ele>
        <time>2022-11-07T15:11:39Z</time>
      </trkpt>
      <trkpt lat="45.38073" lon="4.96173">
        <ele>340.45</ele>
        <time>2022-11-07T15:11:43Z</time>
      </trkpt>
      <trkpt lat="45.38075" lon="4.96183">
        <ele>340.23</ele>
        <time>2022-11-07T15:11:46Z</time>
      </trkpt>
      <trkpt lat="45.38077" lon="4.96186">
        <ele>340.13</ele>
        <time>2022-11-07T15:11:47Z</time>
      </trkpt>
      <trkpt lat="45.38079" lon="4.96189">
        <ele>340.03</ele>
        <time>2022-11-07T15:11:48Z</time>
      </trkpt>
      <trkpt lat="45.38081" lon="4.96193">
        <ele>339.96</ele>
        <time>2022-11-07T15:11:49Z</time>
      </trkpt>
      <trkpt lat="45.38091" lon="4.96221">
        <ele>339.71</ele>
        <time>2022-11-07T15:11:55Z</time>
      </trkpt>
      <trkpt lat="45.38094" lon="4.96255">
        <ele>339.11</ele>
        <time>2022-11-07T15:12:02Z</time>
      </trkpt>
      <trkpt lat="45.3809" lon="4.96304">
        <ele>340.08</ele>
        <time>2022-11-07T15:12:10Z</time>
      </trkpt>
      <trkpt lat="45.38088" lon="4.9632">
        <ele>340.56</ele>
        <time>2022-11-07T15:12:13Z</time>
      </trkpt>
      <trkpt lat="45.38086" lon="4.96351">
        <ele>341.35</ele>
        <time>2022-11-07T15:12:19Z</time>
      </trkpt>
      <trkpt lat="45.38087" lon="4.96379">
        <ele>342.54</ele>
        <time>2022-11-07T15:12:27Z</time>
      </trkpt>
      <trkpt lat="45.38087" lon="4.96381">
        <ele>342.66</ele>
        <time>2022-11-07T15:12:28Z</time>
      </trkpt>
      <trkpt lat="45.38089" lon="4.96382">
        <ele>342.76</ele>
        <time>2022-11-07T15:12:29Z</time>
      </trkpt>
      <trkpt lat="45.38091" lon="4.96384">
        <ele>343.24</ele>
        <time>2022-11-07T15:12:36Z</time>
      </trkpt>
      <trkpt lat="45.38094" lon="4.96384">
        <ele>343.2</ele>
        <time>2022-11-07T15:12:45Z</time>
      </trkpt>
      <trkpt lat="45.38095" lon="4.96383">
        <ele>343.21</ele>
        <time>2022-11-07T15:12:46Z</time>
      </trkpt>
      <trkpt lat="45.38096" lon="4.96383">
        <ele>343.25</ele>
        <time>2022-11-07T15:12:47Z</time>
      </trkpt>
      <trkpt lat="45.38098" lon="4.96383">
        <ele>343.32</ele>
        <time>2022-11-07T15:12:48Z</time>
      </trkpt>
      <trkpt lat="45.38112" lon="4.96382">
        <ele>344.79</ele>
        <time>2022-11-07T15:12:56Z</time>
      </trkpt>
      <trkpt lat="45.38123" lon="4.96373">
        <ele>346.87</ele>
        <time>2022-11-07T15:13:05Z</time>
      </trkpt>
      <trkpt lat="45.38136" lon="4.96359">
        <ele>348.91</ele>
        <time>2022-11-07T15:13:14Z</time>
      </trkpt>
      <trkpt lat="45.38143" lon="4.9635">
        <ele>350.45</ele>
        <time>2022-11-07T15:13:19Z</time>
      </trkpt>
      <trkpt lat="45.38159" lon="4.96347">
        <ele>353.1</ele>
        <time>2022-11-07T15:13:28Z</time>
      </trkpt>
      <trkpt lat="45.38172" lon="4.96347">
        <ele>355.74</ele>
        <time>2022-11-07T15:13:35Z</time>
      </trkpt>
      <trkpt lat="45.38185" lon="4.96342">
        <ele>358.9</ele>
        <time>2022-11-07T15:13:42Z</time>
      </trkpt>
      <trkpt lat="45.38197" lon="4.96336">
        <ele>361.91</ele>
        <time>2022-11-07T15:13:48Z</time>
      </trkpt>
      <trkpt lat="45.38211" lon="4.96329">
        <ele>364.9</ele>
        <time>2022-11-07T15:13:55Z</time>
      </trkpt>
      <trkpt lat="45.38225" lon="4.96327">
        <ele>368.03</ele>
        <time>2022-11-07T15:14:02Z</time>
      </trkpt>
      <trkpt lat="45.38238" lon="4.9633">
        <ele>370.58</ele>
        <time>2022-11-07T15:14:09Z</time>
      </trkpt>
      <trkpt lat="45.38255" lon="4.96341">
        <ele>372.56</ele>
        <time>2022-11-07T15:14:16Z</time>
      </trkpt>
      <trkpt lat="45.38267" lon="4.9635">
        <ele>374.58</ele>
        <time>2022-11-07T15:14:22Z</time>
      </trkpt>
      <trkpt lat="45.3828" lon="4.96351">
        <ele>376.87</ele>
        <time>2022-11-07T15:14:28Z</time>
      </trkpt>
      <trkpt lat="45.38287" lon="4.96353">
        <ele>378.19</ele>
        <time>2022-11-07T15:14:32Z</time>
      </trkpt>
      <trkpt lat="45.38303" lon="4.96351">
        <ele>380.35</ele>
        <time>2022-11-07T15:14:38Z</time>
      </trkpt>
      <trkpt lat="45.38317" lon="4.96353">
        <ele>382.52</ele>
        <time>2022-11-07T15:14:44Z</time>
      </trkpt>
      <trkpt lat="45.38325" lon="4.96359">
        <ele>383.68</ele>
        <time>2022-11-07T15:14:48Z</time>
      </trkpt>
      <trkpt lat="45.38348" lon="4.96364">
        <ele>386.31</ele>
        <time>2022-11-07T15:14:57Z</time>
      </trkpt>
      <trkpt lat="45.38366" lon="4.96368">
        <ele>388.12</ele>
        <time>2022-11-07T15:15:04Z</time>
      </trkpt>
      <trkpt lat="45.38378" lon="4.96372">
        <ele>389.77</ele>
        <time>2022-11-07T15:15:10Z</time>
      </trkpt>
      <trkpt lat="45.38388" lon="4.9638">
        <ele>391.77</ele>
        <time>2022-11-07T15:15:16Z</time>
      </trkpt>
      <trkpt lat="45.38389" lon="4.96391">
        <ele>393.52</ele>
        <time>2022-11-07T15:15:23Z</time>
      </trkpt>
      <trkpt lat="45.38384" lon="4.96409">
        <ele>396.04</ele>
        <time>2022-11-07T15:15:34Z</time>
      </trkpt>
      <trkpt lat="45.38384" lon="4.96411">
        <ele>396.2</ele>
        <time>2022-11-07T15:15:37Z</time>
      </trkpt>
      <trkpt lat="45.38372" lon="4.96417">
        <ele>396.1</ele>
        <time>2022-11-07T15:15:44Z</time>
      </trkpt>
      <trkpt lat="45.38365" lon="4.9643">
        <ele>395.11</ele>
        <time>2022-11-07T15:15:51Z</time>
      </trkpt>
      <trkpt lat="45.38363" lon="4.96438">
        <ele>394.38</ele>
        <time>2022-11-07T15:15:59Z</time>
      </trkpt>
      <trkpt lat="45.38363" lon="4.96439">
        <ele>394.35</ele>
        <time>2022-11-07T15:16:01Z</time>
      </trkpt>
      <trkpt lat="45.38362" lon="4.96443">
        <ele>394.3</ele>
        <time>2022-11-07T15:16:08Z</time>
      </trkpt>
      <trkpt lat="45.38362" lon="4.96443">
        <ele>394.05</ele>
        <time>2022-11-07T15:16:27Z</time>
      </trkpt>
      <trkpt lat="45.38364" lon="4.96443">
        <ele>393.91</ele>
        <time>2022-11-07T15:16:34Z</time>
      </trkpt>
      <trkpt lat="45.38365" lon="4.96442">
        <ele>393.95</ele>
        <time>2022-11-07T15:16:38Z</time>
      </trkpt>
      <trkpt lat="45.38368" lon="4.96434">
        <ele>394.19</ele>
        <time>2022-11-07T15:16:42Z</time>
      </trkpt>
      <trkpt lat="45.38376" lon="4.96428">
        <ele>394.72</ele>
        <time>2022-11-07T15:16:48Z</time>
      </trkpt>
      <trkpt lat="45.38385" lon="4.96428">
        <ele>395.58</ele>
        <time>2022-11-07T15:16:56Z</time>
      </trkpt>
      <trkpt lat="45.38385" lon="4.96428">
        <ele>395.96</ele>
        <time>2022-11-07T15:17:07Z</time>
      </trkpt>
      <trkpt lat="45.38385" lon="4.9643">
        <ele>395.87</ele>
        <time>2022-11-07T15:17:30Z</time>
      </trkpt>
      <trkpt lat="45.38382" lon="4.96433">
        <ele>396.05</ele>
        <time>2022-11-07T15:17:48Z</time>
      </trkpt>
      <trkpt lat="45.38383" lon="4.9643">
        <ele>395.98</ele>
        <time>2022-11-07T15:18:14Z</time>
      </trkpt>
      <trkpt lat="45.38385" lon="4.96431">
        <ele>396.05</ele>
        <time>2022-11-07T15:18:22Z</time>
      </trkpt>
      <trkpt lat="45.38388" lon="4.96432">
        <ele>396.22</ele>
        <time>2022-11-07T15:18:25Z</time>
      </trkpt>
      <trkpt lat="45.38406" lon="4.96439">
        <ele>397.49</ele>
        <time>2022-11-07T15:18:35Z</time>
      </trkpt>
      <trkpt lat="45.38418" lon="4.96445">
        <ele>398.59</ele>
        <time>2022-11-07T15:18:42Z</time>
      </trkpt>
      <trkpt lat="45.38425" lon="4.96449">
        <ele>399.41</ele>
        <time>2022-11-07T15:18:47Z</time>
      </trkpt>
      <trkpt lat="45.38434" lon="4.96452">
        <ele>400.77</ele>
        <time>2022-11-07T15:18:52Z</time>
      </trkpt>
      <trkpt lat="45.38443" lon="4.96455">
        <ele>402.1</ele>
        <time>2022-11-07T15:18:56Z</time>
      </trkpt>
      <trkpt lat="45.38467" lon="4.96455">
        <ele>405.21</ele>
        <time>2022-11-07T15:19:05Z</time>
      </trkpt>
      <trkpt lat="45.38482" lon="4.96455">
        <ele>407.21</ele>
        <time>2022-11-07T15:19:11Z</time>
      </trkpt>
      <trkpt lat="45.38499" lon="4.9646">
        <ele>410.65</ele>
        <time>2022-11-07T15:19:18Z</time>
      </trkpt>
      <trkpt lat="45.38512" lon="4.96468">
        <ele>413.86</ele>
        <time>2022-11-07T15:19:25Z</time>
      </trkpt>
      <trkpt lat="45.38525" lon="4.96478">
        <ele>416.8</ele>
        <time>2022-11-07T15:19:32Z</time>
      </trkpt>
      <trkpt lat="45.38536" lon="4.96487">
        <ele>418.28</ele>
        <time>2022-11-07T15:19:40Z</time>
      </trkpt>
      <trkpt lat="45.38546" lon="4.96501">
        <ele>418.83</ele>
        <time>2022-11-07T15:19:49Z</time>
      </trkpt>
      <trkpt lat="45.3855" lon="4.96506">
        <ele>419.11</ele>
        <time>2022-11-07T15:19:56Z</time>
      </trkpt>
      <trkpt lat="45.38553" lon="4.96507">
        <ele>419.07</ele>
        <time>2022-11-07T15:20:15Z</time>
      </trkpt>
      <trkpt lat="45.38556" lon="4.96506">
        <ele>419.32</ele>
        <time>2022-11-07T15:20:32Z</time>
      </trkpt>
      <trkpt lat="45.38556" lon="4.9651">
        <ele>419.19</ele>
        <time>2022-11-07T15:20:46Z</time>
      </trkpt>
      <trkpt lat="45.38557" lon="4.96514">
        <ele>419.33</ele>
        <time>2022-11-07T15:20:56Z</time>
      </trkpt>
      <trkpt lat="45.38567" lon="4.96527">
        <ele>419.39</ele>
        <time>2022-11-07T15:21:05Z</time>
      </trkpt>
      <trkpt lat="45.38578" lon="4.96545">
        <ele>419.6</ele>
        <time>2022-11-07T15:21:14Z</time>
      </trkpt>
      <trkpt lat="45.38591" lon="4.96566">
        <ele>420.12</ele>
        <time>2022-11-07T15:21:23Z</time>
      </trkpt>
      <trkpt lat="45.38601" lon="4.9658">
        <ele>420.39</ele>
        <time>2022-11-07T15:21:29Z</time>
      </trkpt>
      <trkpt lat="45.38618" lon="4.96607">
        <ele>420.44</ele>
        <time>2022-11-07T15:21:38Z</time>
      </trkpt>
      <trkpt lat="45.38629" lon="4.96622">
        <ele>420.55</ele>
        <time>2022-11-07T15:21:44Z</time>
      </trkpt>
      <trkpt lat="45.38644" lon="4.96644">
        <ele>420.67</ele>
        <time>2022-11-07T15:21:52Z</time>
      </trkpt>
      <trkpt lat="45.38661" lon="4.96665">
        <ele>421.19</ele>
        <time>2022-11-07T15:22:01Z</time>
      </trkpt>
      <trkpt lat="45.3867" lon="4.9668">
        <ele>421.63</ele>
        <time>2022-11-07T15:22:08Z</time>
      </trkpt>
      <trkpt lat="45.38679" lon="4.9669">
        <ele>422.17</ele>
        <time>2022-11-07T15:22:15Z</time>
      </trkpt>
      <trkpt lat="45.3869" lon="4.96705">
        <ele>422.93</ele>
        <time>2022-11-07T15:22:22Z</time>
      </trkpt>
      <trkpt lat="45.38701" lon="4.96724">
        <ele>424.06</ele>
        <time>2022-11-07T15:22:31Z</time>
      </trkpt>
      <trkpt lat="45.38711" lon="4.9674">
        <ele>425.19</ele>
        <time>2022-11-07T15:22:38Z</time>
      </trkpt>
      <trkpt lat="45.3872" lon="4.96756">
        <ele>425.98</ele>
        <time>2022-11-07T15:22:44Z</time>
      </trkpt>
      <trkpt lat="45.38726" lon="4.96767">
        <ele>426.44</ele>
        <time>2022-11-07T15:22:48Z</time>
      </trkpt>
      <trkpt lat="45.38734" lon="4.96781">
        <ele>426.65</ele>
        <time>2022-11-07T15:22:53Z</time>
      </trkpt>
      <trkpt lat="45.38743" lon="4.96796">
        <ele>426.9</ele>
        <time>2022-11-07T15:22:59Z</time>
      </trkpt>
      <trkpt lat="45.38761" lon="4.96806">
        <ele>427.31</ele>
        <time>2022-11-07T15:23:07Z</time>
      </trkpt>
      <trkpt lat="45.38782" lon="4.96805">
        <ele>427.9</ele>
        <time>2022-11-07T15:23:15Z</time>
      </trkpt>
      <trkpt lat="45.38805" lon="4.96809">
        <ele>428.68</ele>
        <time>2022-11-07T15:23:25Z</time>
      </trkpt>
      <trkpt lat="45.38828" lon="4.96819">
        <ele>430.13</ele>
        <time>2022-11-07T15:23:36Z</time>
      </trkpt>
      <trkpt lat="45.38844" lon="4.96826">
        <ele>431.6</ele>
        <time>2022-11-07T15:23:44Z</time>
      </trkpt>
      <trkpt lat="45.38866" lon="4.96833">
        <ele>433.74</ele>
        <time>2022-11-07T15:23:54Z</time>
      </trkpt>
      <trkpt lat="45.38888" lon="4.96841">
        <ele>435.19</ele>
        <time>2022-11-07T15:24:04Z</time>
      </trkpt>
      <trkpt lat="45.3891" lon="4.9685">
        <ele>436.54</ele>
        <time>2022-11-07T15:24:14Z</time>
      </trkpt>
      <trkpt lat="45.38924" lon="4.96859">
        <ele>437.41</ele>
        <time>2022-11-07T15:24:21Z</time>
      </trkpt>
      <trkpt lat="45.38939" lon="4.96868">
        <ele>438.12</ele>
        <time>2022-11-07T15:24:28Z</time>
      </trkpt>
      <trkpt lat="45.38969" lon="4.96886">
        <ele>439.35</ele>
        <time>2022-11-07T15:24:40Z</time>
      </trkpt>
      <trkpt lat="45.38997" lon="4.96902">
        <ele>440.06</ele>
        <time>2022-11-07T15:24:51Z</time>
      </trkpt>
      <trkpt lat="45.39023" lon="4.96914">
        <ele>440.56</ele>
        <time>2022-11-07T15:25:01Z</time>
      </trkpt>
      <trkpt lat="45.39052" lon="4.96928">
        <ele>440.86</ele>
        <time>2022-11-07T15:25:12Z</time>
      </trkpt>
      <trkpt lat="45.39083" lon="4.96942">
        <ele>441.32</ele>
        <time>2022-11-07T15:25:24Z</time>
      </trkpt>
      <trkpt lat="45.39101" lon="4.96952">
        <ele>441.52</ele>
        <time>2022-11-07T15:25:33Z</time>
      </trkpt>
      <trkpt lat="45.39112" lon="4.96947">
        <ele>441.51</ele>
        <time>2022-11-07T15:25:41Z</time>
      </trkpt>
      <trkpt lat="45.39114" lon="4.96948">
        <ele>441.6</ele>
        <time>2022-11-07T15:25:50Z</time>
      </trkpt>
      <trkpt lat="45.39115" lon="4.9695">
        <ele>441.61</ele>
        <time>2022-11-07T15:25:51Z</time>
      </trkpt>
      <trkpt lat="45.39116" lon="4.96952">
        <ele>441.6</ele>
        <time>2022-11-07T15:25:52Z</time>
      </trkpt>
      <trkpt lat="45.39117" lon="4.96955">
        <ele>441.57</ele>
        <time>2022-11-07T15:25:53Z</time>
      </trkpt>
      <trkpt lat="45.39119" lon="4.96958">
        <ele>441.53</ele>
        <time>2022-11-07T15:25:54Z</time>
      </trkpt>
      <trkpt lat="45.39134" lon="4.97002">
        <ele>441.35</ele>
        <time>2022-11-07T15:26:05Z</time>
      </trkpt>
      <trkpt lat="45.39145" lon="4.9705">
        <ele>441.43</ele>
        <time>2022-11-07T15:26:16Z</time>
      </trkpt>
      <trkpt lat="45.39157" lon="4.97092">
        <ele>441.58</ele>
        <time>2022-11-07T15:26:26Z</time>
      </trkpt>
      <trkpt lat="45.39164" lon="4.97125">
        <ele>442.17</ele>
        <time>2022-11-07T15:26:34Z</time>
      </trkpt>
      <trkpt lat="45.3917" lon="4.97169">
        <ele>443.12</ele>
        <time>2022-11-07T15:26:44Z</time>
      </trkpt>
      <trkpt lat="45.39177" lon="4.97217">
        <ele>444.07</ele>
        <time>2022-11-07T15:26:54Z</time>
      </trkpt>
      <trkpt lat="45.3918" lon="4.97266">
        <ele>444.74</ele>
        <time>2022-11-07T15:27:05Z</time>
      </trkpt>
      <trkpt lat="45.39182" lon="4.97283">
        <ele>444.57</ele>
        <time>2022-11-07T15:27:13Z</time>
      </trkpt>
      <trkpt lat="45.39185" lon="4.97301">
        <ele>444.74</ele>
        <time>2022-11-07T15:27:20Z</time>
      </trkpt>
      <trkpt lat="45.39185" lon="4.97308">
        <ele>444.78</ele>
        <time>2022-11-07T15:27:26Z</time>
      </trkpt>
      <trkpt lat="45.39186" lon="4.97315">
        <ele>444.74</ele>
        <time>2022-11-07T15:27:50Z</time>
      </trkpt>
      <trkpt lat="45.39187" lon="4.97321">
        <ele>444.85</ele>
        <time>2022-11-07T15:27:53Z</time>
      </trkpt>
      <trkpt lat="45.39192" lon="4.97352">
        <ele>445.33</ele>
        <time>2022-11-07T15:28:02Z</time>
      </trkpt>
      <trkpt lat="45.39205" lon="4.9739">
        <ele>445.42</ele>
        <time>2022-11-07T15:28:11Z</time>
      </trkpt>
      <trkpt lat="45.39229" lon="4.97423">
        <ele>445.07</ele>
        <time>2022-11-07T15:28:20Z</time>
      </trkpt>
      <trkpt lat="45.39268" lon="4.97463">
        <ele>444.07</ele>
        <time>2022-11-07T15:28:32Z</time>
      </trkpt>
      <trkpt lat="45.39304" lon="4.97505">
        <ele>443.73</ele>
        <time>2022-11-07T15:28:42Z</time>
      </trkpt>
      <trkpt lat="45.39323" lon="4.97533">
        <ele>443.87</ele>
        <time>2022-11-07T15:28:48Z</time>
      </trkpt>
      <trkpt lat="45.39331" lon="4.97548">
        <ele>443.9</ele>
        <time>2022-11-07T15:28:51Z</time>
      </trkpt>
      <trkpt lat="45.39341" lon="4.9759">
        <ele>444.06</ele>
        <time>2022-11-07T15:28:58Z</time>
      </trkpt>
      <trkpt lat="45.3934" lon="4.97653">
        <ele>444.02</ele>
        <time>2022-11-07T15:29:08Z</time>
      </trkpt>
      <trkpt lat="45.39345" lon="4.97708">
        <ele>444.53</ele>
        <time>2022-11-07T15:29:17Z</time>
      </trkpt>
      <trkpt lat="45.39356" lon="4.9777">
        <ele>445.4</ele>
        <time>2022-11-07T15:29:29Z</time>
      </trkpt>
      <trkpt lat="45.39364" lon="4.97803">
        <ele>446.1</ele>
        <time>2022-11-07T15:29:37Z</time>
      </trkpt>
      <trkpt lat="45.39373" lon="4.97829">
        <ele>446.05</ele>
        <time>2022-11-07T15:29:45Z</time>
      </trkpt>
      <trkpt lat="45.39387" lon="4.97856">
        <ele>446.06</ele>
        <time>2022-11-07T15:29:52Z</time>
      </trkpt>
      <trkpt lat="45.39408" lon="4.97884">
        <ele>445.94</ele>
        <time>2022-11-07T15:29:59Z</time>
      </trkpt>
      <trkpt lat="45.39436" lon="4.97913">
        <ele>444.72</ele>
        <time>2022-11-07T15:30:06Z</time>
      </trkpt>
      <trkpt lat="45.39459" lon="4.9793">
        <ele>443.99</ele>
        <time>2022-11-07T15:30:11Z</time>
      </trkpt>
      <trkpt lat="45.39502" lon="4.97954">
        <ele>442.95</ele>
        <time>2022-11-07T15:30:20Z</time>
      </trkpt>
      <trkpt lat="45.39535" lon="4.97977">
        <ele>442.78</ele>
        <time>2022-11-07T15:30:28Z</time>
      </trkpt>
      <trkpt lat="45.39539" lon="4.9798">
        <ele>442.75</ele>
        <time>2022-11-07T15:30:29Z</time>
      </trkpt>
      <trkpt lat="45.39542" lon="4.97983">
        <ele>442.67</ele>
        <time>2022-11-07T15:30:30Z</time>
      </trkpt>
      <trkpt lat="45.39563" lon="4.98009">
        <ele>442.62</ele>
        <time>2022-11-07T15:30:37Z</time>
      </trkpt>
      <trkpt lat="45.39576" lon="4.98037">
        <ele>442.89</ele>
        <time>2022-11-07T15:30:43Z</time>
      </trkpt>
      <trkpt lat="45.39591" lon="4.98066">
        <ele>443.47</ele>
        <time>2022-11-07T15:30:50Z</time>
      </trkpt>
      <trkpt lat="45.39609" lon="4.98087">
        <ele>443.99</ele>
        <time>2022-11-07T15:30:56Z</time>
      </trkpt>
      <trkpt lat="45.3963" lon="4.98108">
        <ele>445.02</ele>
        <time>2022-11-07T15:31:05Z</time>
      </trkpt>
      <trkpt lat="45.39646" lon="4.98125">
        <ele>446.1</ele>
        <time>2022-11-07T15:31:12Z</time>
      </trkpt>
      <trkpt lat="45.39679" lon="4.98155">
        <ele>447.72</ele>
        <time>2022-11-07T15:31:23Z</time>
      </trkpt>
      <trkpt lat="45.39706" lon="4.98181">
        <ele>448.48</ele>
        <time>2022-11-07T15:31:33Z</time>
      </trkpt>
      <trkpt lat="45.39731" lon="4.98208">
        <ele>449.37</ele>
        <time>2022-11-07T15:31:42Z</time>
      </trkpt>
      <trkpt lat="45.39758" lon="4.98231">
        <ele>449.61</ele>
        <time>2022-11-07T15:31:51Z</time>
      </trkpt>
      <trkpt lat="45.39796" lon="4.98258">
        <ele>449.85</ele>
        <time>2022-11-07T15:32:02Z</time>
      </trkpt>
      <trkpt lat="45.39828" lon="4.98278">
        <ele>449.59</ele>
        <time>2022-11-07T15:32:10Z</time>
      </trkpt>
      <trkpt lat="45.3984" lon="4.98286">
        <ele>449.37</ele>
        <time>2022-11-07T15:32:13Z</time>
      </trkpt>
      <trkpt lat="45.39872" lon="4.98307">
        <ele>449.06</ele>
        <time>2022-11-07T15:32:21Z</time>
      </trkpt>
      <trkpt lat="45.39876" lon="4.9831">
        <ele>449.05</ele>
        <time>2022-11-07T15:32:22Z</time>
      </trkpt>
      <trkpt lat="45.39899" lon="4.98324">
        <ele>449.08</ele>
        <time>2022-11-07T15:32:29Z</time>
      </trkpt>
      <trkpt lat="45.3992" lon="4.98341">
        <ele>449.29</ele>
        <time>2022-11-07T15:32:35Z</time>
      </trkpt>
      <trkpt lat="45.39935" lon="4.98355">
        <ele>449.82</ele>
        <time>2022-11-07T15:32:40Z</time>
      </trkpt>
      <trkpt lat="45.39946" lon="4.98366">
        <ele>450</ele>
        <time>2022-11-07T15:32:43Z</time>
      </trkpt>
      <trkpt lat="45.39971" lon="4.98393">
        <ele>449.96</ele>
        <time>2022-11-07T15:32:50Z</time>
      </trkpt>
      <trkpt lat="45.39979" lon="4.98402">
        <ele>449.87</ele>
        <time>2022-11-07T15:32:52Z</time>
      </trkpt>
      <trkpt lat="45.40007" lon="4.98431">
        <ele>449.83</ele>
        <time>2022-11-07T15:33:00Z</time>
      </trkpt>
      <trkpt lat="45.40019" lon="4.98447">
        <ele>449.79</ele>
        <time>2022-11-07T15:33:05Z</time>
      </trkpt>
      <trkpt lat="45.4004" lon="4.98477">
        <ele>450.41</ele>
        <time>2022-11-07T15:33:13Z</time>
      </trkpt>
      <trkpt lat="45.40057" lon="4.98503">
        <ele>451.08</ele>
        <time>2022-11-07T15:33:19Z</time>
      </trkpt>
      <trkpt lat="45.40079" lon="4.98544">
        <ele>451.37</ele>
        <time>2022-11-07T15:33:27Z</time>
      </trkpt>
      <trkpt lat="45.40092" lon="4.9857">
        <ele>451.08</ele>
        <time>2022-11-07T15:33:32Z</time>
      </trkpt>
      <trkpt lat="45.40094" lon="4.98575">
        <ele>450.98</ele>
        <time>2022-11-07T15:33:33Z</time>
      </trkpt>
      <trkpt lat="45.40107" lon="4.986">
        <ele>450.03</ele>
        <time>2022-11-07T15:33:39Z</time>
      </trkpt>
      <trkpt lat="45.40119" lon="4.98629">
        <ele>448.84</ele>
        <time>2022-11-07T15:33:46Z</time>
      </trkpt>
      <trkpt lat="45.40126" lon="4.98666">
        <ele>448.93</ele>
        <time>2022-11-07T15:33:53Z</time>
      </trkpt>
      <trkpt lat="45.40133" lon="4.98697">
        <ele>449.73</ele>
        <time>2022-11-07T15:34:00Z</time>
      </trkpt>
      <trkpt lat="45.40145" lon="4.98738">
        <ele>451.61</ele>
        <time>2022-11-07T15:34:10Z</time>
      </trkpt>
      <trkpt lat="45.40156" lon="4.98777">
        <ele>453.65</ele>
        <time>2022-11-07T15:34:20Z</time>
      </trkpt>
      <trkpt lat="45.40169" lon="4.98819">
        <ele>455.01</ele>
        <time>2022-11-07T15:34:31Z</time>
      </trkpt>
      <trkpt lat="45.40182" lon="4.98867">
        <ele>456.14</ele>
        <time>2022-11-07T15:34:42Z</time>
      </trkpt>
      <trkpt lat="45.40196" lon="4.98913">
        <ele>456.76</ele>
        <time>2022-11-07T15:34:52Z</time>
      </trkpt>
      <trkpt lat="45.40207" lon="4.98953">
        <ele>456.76</ele>
        <time>2022-11-07T15:35:00Z</time>
      </trkpt>
      <trkpt lat="45.4022" lon="4.98999">
        <ele>456.86</ele>
        <time>2022-11-07T15:35:09Z</time>
      </trkpt>
      <trkpt lat="45.40229" lon="4.99025">
        <ele>456.57</ele>
        <time>2022-11-07T15:35:15Z</time>
      </trkpt>
      <trkpt lat="45.40251" lon="4.99046">
        <ele>456.76</ele>
        <time>2022-11-07T15:35:22Z</time>
      </trkpt>
      <trkpt lat="45.40275" lon="4.99068">
        <ele>457.34</ele>
        <time>2022-11-07T15:35:29Z</time>
      </trkpt>
      <trkpt lat="45.40279" lon="4.99072">
        <ele>457.38</ele>
        <time>2022-11-07T15:35:30Z</time>
      </trkpt>
      <trkpt lat="45.40282" lon="4.99076">
        <ele>457.39</ele>
        <time>2022-11-07T15:35:31Z</time>
      </trkpt>
      <trkpt lat="45.40286" lon="4.99079">
        <ele>457.41</ele>
        <time>2022-11-07T15:35:32Z</time>
      </trkpt>
      <trkpt lat="45.4029" lon="4.99081">
        <ele>457.4</ele>
        <time>2022-11-07T15:35:33Z</time>
      </trkpt>
      <trkpt lat="45.40294" lon="4.99083">
        <ele>457.39</ele>
        <time>2022-11-07T15:35:34Z</time>
      </trkpt>
      <trkpt lat="45.40327" lon="4.9911">
        <ele>457.5</ele>
        <time>2022-11-07T15:35:43Z</time>
      </trkpt>
      <trkpt lat="45.40366" lon="4.99144">
        <ele>457.72</ele>
        <time>2022-11-07T15:35:53Z</time>
      </trkpt>
      <trkpt lat="45.40406" lon="4.99179">
        <ele>457.24</ele>
        <time>2022-11-07T15:36:03Z</time>
      </trkpt>
      <trkpt lat="45.40439" lon="4.99207">
        <ele>456.93</ele>
        <time>2022-11-07T15:36:11Z</time>
      </trkpt>
      <trkpt lat="45.40477" lon="4.99247">
        <ele>456.32</ele>
        <time>2022-11-07T15:36:21Z</time>
      </trkpt>
      <trkpt lat="45.40508" lon="4.99279">
        <ele>456.19</ele>
        <time>2022-11-07T15:36:29Z</time>
      </trkpt>
      <trkpt lat="45.40515" lon="4.99287">
        <ele>456.12</ele>
        <time>2022-11-07T15:36:31Z</time>
      </trkpt>
      <trkpt lat="45.40533" lon="4.99309">
        <ele>455.45</ele>
        <time>2022-11-07T15:36:37Z</time>
      </trkpt>
      <trkpt lat="45.4055" lon="4.99334">
        <ele>455.09</ele>
        <time>2022-11-07T15:36:43Z</time>
      </trkpt>
      <trkpt lat="45.4058" lon="4.99377">
        <ele>456.04</ele>
        <time>2022-11-07T15:36:53Z</time>
      </trkpt>
      <trkpt lat="45.40586" lon="4.99386">
        <ele>456.37</ele>
        <time>2022-11-07T15:36:55Z</time>
      </trkpt>
      <trkpt lat="45.40588" lon="4.99391">
        <ele>456.54</ele>
        <time>2022-11-07T15:36:56Z</time>
      </trkpt>
      <trkpt lat="45.40605" lon="4.99433">
        <ele>457.1</ele>
        <time>2022-11-07T15:37:03Z</time>
      </trkpt>
      <trkpt lat="45.40611" lon="4.99457">
        <ele>456.67</ele>
        <time>2022-11-07T15:37:08Z</time>
      </trkpt>
      <trkpt lat="45.40619" lon="4.99476">
        <ele>455.74</ele>
        <time>2022-11-07T15:37:13Z</time>
      </trkpt>
      <trkpt lat="45.4063" lon="4.99504">
        <ele>455.62</ele>
        <time>2022-11-07T15:37:19Z</time>
      </trkpt>
      <trkpt lat="45.40641" lon="4.99534">
        <ele>455.44</ele>
        <time>2022-11-07T15:37:25Z</time>
      </trkpt>
      <trkpt lat="45.40644" lon="4.99541">
        <ele>455.39</ele>
        <time>2022-11-07T15:37:26Z</time>
      </trkpt>
      <trkpt lat="45.40647" lon="4.99547">
        <ele>455.29</ele>
        <time>2022-11-07T15:37:27Z</time>
      </trkpt>
      <trkpt lat="45.40654" lon="4.99558">
        <ele>455.24</ele>
        <time>2022-11-07T15:37:29Z</time>
      </trkpt>
      <trkpt lat="45.40661" lon="4.99569">
        <ele>455.3</ele>
        <time>2022-11-07T15:37:31Z</time>
      </trkpt>
      <trkpt lat="45.40692" lon="4.9961">
        <ele>455.87</ele>
        <time>2022-11-07T15:37:40Z</time>
      </trkpt>
      <trkpt lat="45.40718" lon="4.99655">
        <ele>456.4</ele>
        <time>2022-11-07T15:37:50Z</time>
      </trkpt>
      <trkpt lat="45.40736" lon="4.997">
        <ele>456.78</ele>
        <time>2022-11-07T15:37:59Z</time>
      </trkpt>
      <trkpt lat="45.40755" lon="4.9975">
        <ele>457.09</ele>
        <time>2022-11-07T15:38:09Z</time>
      </trkpt>
      <trkpt lat="45.40766" lon="4.99787">
        <ele>457.39</ele>
        <time>2022-11-07T15:38:17Z</time>
      </trkpt>
      <trkpt lat="45.40777" lon="4.99823">
        <ele>457.59</ele>
        <time>2022-11-07T15:38:25Z</time>
      </trkpt>
      <trkpt lat="45.40778" lon="4.99829">
        <ele>457.68</ele>
        <time>2022-11-07T15:38:26Z</time>
      </trkpt>
      <trkpt lat="45.40791" lon="4.99878">
        <ele>458.65</ele>
        <time>2022-11-07T15:38:35Z</time>
      </trkpt>
      <trkpt lat="45.40804" lon="4.99932">
        <ele>459.84</ele>
        <time>2022-11-07T15:38:47Z</time>
      </trkpt>
      <trkpt lat="45.40813" lon="4.99972">
        <ele>460.6</ele>
        <time>2022-11-07T15:38:56Z</time>
      </trkpt>
      <trkpt lat="45.40813" lon="5.00014">
        <ele>460.87</ele>
        <time>2022-11-07T15:39:05Z</time>
      </trkpt>
      <trkpt lat="45.4081" lon="5.00051">
        <ele>460.66</ele>
        <time>2022-11-07T15:39:12Z</time>
      </trkpt>
      <trkpt lat="45.40809" lon="5.00093">
        <ele>460.46</ele>
        <time>2022-11-07T15:39:20Z</time>
      </trkpt>
      <trkpt lat="45.40816" lon="5.00156">
        <ele>460.26</ele>
        <time>2022-11-07T15:39:31Z</time>
      </trkpt>
      <trkpt lat="45.40824" lon="5.00223">
        <ele>460.55</ele>
        <time>2022-11-07T15:39:43Z</time>
      </trkpt>
      <trkpt lat="45.40832" lon="5.00281">
        <ele>461.15</ele>
        <time>2022-11-07T15:39:55Z</time>
      </trkpt>
      <trkpt lat="45.40837" lon="5.0034">
        <ele>462.28</ele>
        <time>2022-11-07T15:40:07Z</time>
      </trkpt>
      <trkpt lat="45.40841" lon="5.00388">
        <ele>463.15</ele>
        <time>2022-11-07T15:40:17Z</time>
      </trkpt>
      <trkpt lat="45.40843" lon="5.00415">
        <ele>464.13</ele>
        <time>2022-11-07T15:40:23Z</time>
      </trkpt>
      <trkpt lat="45.40845" lon="5.00433">
        <ele>464.5</ele>
        <time>2022-11-07T15:40:27Z</time>
      </trkpt>
      <trkpt lat="45.40852" lon="5.00488">
        <ele>466.32</ele>
        <time>2022-11-07T15:40:39Z</time>
      </trkpt>
      <trkpt lat="45.40855" lon="5.00527">
        <ele>466.64</ele>
        <time>2022-11-07T15:40:48Z</time>
      </trkpt>
      <trkpt lat="45.40847" lon="5.00549">
        <ele>466.54</ele>
        <time>2022-11-07T15:40:54Z</time>
      </trkpt>
      <trkpt lat="45.40827" lon="5.00554">
        <ele>466.97</ele>
        <time>2022-11-07T15:41:00Z</time>
      </trkpt>
      <trkpt lat="45.40789" lon="5.00557">
        <ele>467.5</ele>
        <time>2022-11-07T15:41:12Z</time>
      </trkpt>
      <trkpt lat="45.40776" lon="5.00567">
        <ele>467.42</ele>
        <time>2022-11-07T15:41:18Z</time>
      </trkpt>
      <trkpt lat="45.40771" lon="5.00595">
        <ele>466.82</ele>
        <time>2022-11-07T15:41:25Z</time>
      </trkpt>
      <trkpt lat="45.40768" lon="5.00636">
        <ele>466.11</ele>
        <time>2022-11-07T15:41:32Z</time>
      </trkpt>
      <trkpt lat="45.40768" lon="5.00643">
        <ele>466.01</ele>
        <time>2022-11-07T15:41:33Z</time>
      </trkpt>
      <trkpt lat="45.40768" lon="5.00651">
        <ele>465.92</ele>
        <time>2022-11-07T15:41:34Z</time>
      </trkpt>
      <trkpt lat="45.40765" lon="5.00716">
        <ele>465.48</ele>
        <time>2022-11-07T15:41:41Z</time>
      </trkpt>
      <trkpt lat="45.40754" lon="5.00795">
        <ele>464.08</ele>
        <time>2022-11-07T15:41:48Z</time>
      </trkpt>
      <trkpt lat="45.40725" lon="5.00879">
        <ele>461.78</ele>
        <time>2022-11-07T15:41:55Z</time>
      </trkpt>
      <trkpt lat="45.40695" lon="5.00943">
        <ele>458.9</ele>
        <time>2022-11-07T15:42:00Z</time>
      </trkpt>
      <trkpt lat="45.40664" lon="5.01007">
        <ele>456.15</ele>
        <time>2022-11-07T15:42:06Z</time>
      </trkpt>
      <trkpt lat="45.4064" lon="5.01057">
        <ele>454.72</ele>
        <time>2022-11-07T15:42:12Z</time>
      </trkpt>
      <trkpt lat="45.40632" lon="5.01098">
        <ele>454.55</ele>
        <time>2022-11-07T15:42:18Z</time>
      </trkpt>
      <trkpt lat="45.40631" lon="5.01109">
        <ele>454.78</ele>
        <time>2022-11-07T15:42:20Z</time>
      </trkpt>
      <trkpt lat="45.40632" lon="5.01121">
        <ele>455.07</ele>
        <time>2022-11-07T15:42:22Z</time>
      </trkpt>
      <trkpt lat="45.40635" lon="5.01146">
        <ele>455.9</ele>
        <time>2022-11-07T15:42:26Z</time>
      </trkpt>
      <trkpt lat="45.40637" lon="5.01153">
        <ele>456.14</ele>
        <time>2022-11-07T15:42:27Z</time>
      </trkpt>
      <trkpt lat="45.40643" lon="5.01173">
        <ele>457.04</ele>
        <time>2022-11-07T15:42:30Z</time>
      </trkpt>
      <trkpt lat="45.40657" lon="5.01226">
        <ele>459.34</ele>
        <time>2022-11-07T15:42:37Z</time>
      </trkpt>
      <trkpt lat="45.40673" lon="5.01277">
        <ele>461.64</ele>
        <time>2022-11-07T15:42:45Z</time>
      </trkpt>
      <trkpt lat="45.40684" lon="5.01314">
        <ele>462.43</ele>
        <time>2022-11-07T15:42:53Z</time>
      </trkpt>
      <trkpt lat="45.40698" lon="5.01352">
        <ele>463.4</ele>
        <time>2022-11-07T15:43:03Z</time>
      </trkpt>
      <trkpt lat="45.40721" lon="5.01389">
        <ele>464.25</ele>
        <time>2022-11-07T15:43:14Z</time>
      </trkpt>
      <trkpt lat="45.40746" lon="5.01425">
        <ele>464.52</ele>
        <time>2022-11-07T15:43:24Z</time>
      </trkpt>
      <trkpt lat="45.40777" lon="5.01468">
        <ele>464.67</ele>
        <time>2022-11-07T15:43:36Z</time>
      </trkpt>
      <trkpt lat="45.40786" lon="5.01483">
        <ele>464.92</ele>
        <time>2022-11-07T15:43:40Z</time>
      </trkpt>
      <trkpt lat="45.40796" lon="5.015">
        <ele>465.09</ele>
        <time>2022-11-07T15:43:45Z</time>
      </trkpt>
      <trkpt lat="45.40807" lon="5.01518">
        <ele>464.91</ele>
        <time>2022-11-07T15:43:49Z</time>
      </trkpt>
      <trkpt lat="45.40817" lon="5.01533">
        <ele>464.74</ele>
        <time>2022-11-07T15:43:52Z</time>
      </trkpt>
      <trkpt lat="45.40821" lon="5.01539">
        <ele>464.63</ele>
        <time>2022-11-07T15:43:53Z</time>
      </trkpt>
      <trkpt lat="45.40825" lon="5.01545">
        <ele>464.47</ele>
        <time>2022-11-07T15:43:54Z</time>
      </trkpt>
      <trkpt lat="45.4086" lon="5.01593">
        <ele>463.26</ele>
        <time>2022-11-07T15:44:01Z</time>
      </trkpt>
      <trkpt lat="45.40879" lon="5.01627">
        <ele>462.35</ele>
        <time>2022-11-07T15:44:06Z</time>
      </trkpt>
      <trkpt lat="45.40885" lon="5.01644">
        <ele>461.34</ele>
        <time>2022-11-07T15:44:10Z</time>
      </trkpt>
      <trkpt lat="45.40887" lon="5.01648">
        <ele>460.37</ele>
        <time>2022-11-07T15:44:16Z</time>
      </trkpt>
      <trkpt lat="45.40888" lon="5.0165">
        <ele>460.3</ele>
        <time>2022-11-07T15:44:17Z</time>
      </trkpt>
      <trkpt lat="45.40888" lon="5.01652">
        <ele>460.24</ele>
        <time>2022-11-07T15:44:18Z</time>
      </trkpt>
      <trkpt lat="45.4089" lon="5.01653">
        <ele>460.18</ele>
        <time>2022-11-07T15:44:19Z</time>
      </trkpt>
      <trkpt lat="45.40892" lon="5.01655">
        <ele>460.18</ele>
        <time>2022-11-07T15:44:20Z</time>
      </trkpt>
      <trkpt lat="45.40894" lon="5.01655">
        <ele>460.18</ele>
        <time>2022-11-07T15:44:21Z</time>
      </trkpt>
      <trkpt lat="45.40897" lon="5.01656">
        <ele>460.21</ele>
        <time>2022-11-07T15:44:22Z</time>
      </trkpt>
      <trkpt lat="45.409" lon="5.01656">
        <ele>460.25</ele>
        <time>2022-11-07T15:44:23Z</time>
      </trkpt>
      <trkpt lat="45.40904" lon="5.01657">
        <ele>460.3</ele>
        <time>2022-11-07T15:44:24Z</time>
      </trkpt>
      <trkpt lat="45.40935" lon="5.0166">
        <ele>461.84</ele>
        <time>2022-11-07T15:44:34Z</time>
      </trkpt>
      <trkpt lat="45.40959" lon="5.01665">
        <ele>463.43</ele>
        <time>2022-11-07T15:44:42Z</time>
      </trkpt>
      <trkpt lat="45.4099" lon="5.01673">
        <ele>464.9</ele>
        <time>2022-11-07T15:44:51Z</time>
      </trkpt>
      <trkpt lat="45.41025" lon="5.0168">
        <ele>466.58</ele>
        <time>2022-11-07T15:45:01Z</time>
      </trkpt>
      <trkpt lat="45.41052" lon="5.01685">
        <ele>467.48</ele>
        <time>2022-11-07T15:45:09Z</time>
      </trkpt>
      <trkpt lat="45.4108" lon="5.01693">
        <ele>468.51</ele>
        <time>2022-11-07T15:45:19Z</time>
      </trkpt>
      <trkpt lat="45.41095" lon="5.01702">
        <ele>469.17</ele>
        <time>2022-11-07T15:45:27Z</time>
      </trkpt>
      <trkpt lat="45.411" lon="5.01705">
        <ele>469.23</ele>
        <time>2022-11-07T15:45:35Z</time>
      </trkpt>
      <trkpt lat="45.41102" lon="5.01704">
        <ele>469.57</ele>
        <time>2022-11-07T15:45:48Z</time>
      </trkpt>
      <trkpt lat="45.41102" lon="5.01704">
        <ele>461.02</ele>
        <time>2022-11-07T15:45:50Z</time>
      </trkpt>
    </trkseg>
  </trk>
</gpx>